<?xml version="1.0" encoding="UTF-8" standalone="no" ?><gpx xmlns="http://www.topografix.com/GPX/1/1" xmlns:gpxx="http://www.garmin.com/xmlschemas/GpxExtensions/v3" xmlns:gpxtrkx="http://www.garmin.com/xmlschemas/TrackStatsExtension/v1" xmlns:wptx1="http://www.garmin.com/xmlschemas/WaypointExtension/v1" xmlns:gpxtpx="http://www.garmin.com/xmlschemas/TrackPointExtension/v1" creator="Montana 700" version="1.1" xmlns:xsi="http://www.w3.org/2001/XMLSchema-instance" xsi:schemaLocation="http://www.topografix.com/GPX/1/1 http://www.topografix.com/GPX/1/1/gpx.xsd http://www.garmin.com/xmlschemas/GpxExtensions/v3 http://www8.garmin.com/xmlschemas/GpxExtensionsv3.xsd http://www.garmin.com/xmlschemas/TrackStatsExtension/v1 http://www8.garmin.com/xmlschemas/TrackStatsExtension.xsd http://www.garmin.com/xmlschemas/WaypointExtension/v1 http://www8.garmin.com/xmlschemas/WaypointExtensionv1.xsd http://www.garmin.com/xmlschemas/TrackPointExtension/v1 http://www.garmin.com/xmlschemas/TrackPointExtensionv1.xsd"><metadata><link href="http://www.garmin.com"><text>Garmin International</text></link><time>2026-04-27T07:58:09Z</time></metadata><trk><name>2026-04-27 13:42:55</name><extensions><gpxtrkx:TrackStatsExtension><gpxtrkx:Distance>8488.000</gpxtrkx:Distance><gpxtrkx:TimerTime>13486</gpxtrkx:TimerTime><gpxtrkx:TotalElapsedTime>13486</gpxtrkx:TotalElapsedTime><gpxtrkx:MovingTime>10246</gpxtrkx:MovingTime><gpxtrkx:StoppedTime>3240</gpxtrkx:StoppedTime><gpxtrkx:MovingSpeed>0.828</gpxtrkx:MovingSpeed><gpxtrkx:MaxSpeed>1.451</gpxtrkx:MaxSpeed><gpxtrkx:MaxElevation>537.482</gpxtrkx:MaxElevation><gpxtrkx:MinElevation>411.227</gpxtrkx:MinElevation><gpxtrkx:Ascent>376.000</gpxtrkx:Ascent><gpxtrkx:Descent>364.271</gpxtrkx:Descent><gpxtrkx:AvgAscentRate>0.079</gpxtrkx:AvgAscentRate><gpxtrkx:MaxAscentRate>0.149</gpxtrkx:MaxAscentRate><gpxtrkx:AvgDescentRate>0.066</gpxtrkx:AvgDescentRate><gpxtrkx:MaxDescentRate>-0.177</gpxtrkx:MaxDescentRate><gpxtrkx:Calories>510</gpxtrkx:Calories></gpxtrkx:TrackStatsExtension></extensions><trkseg><trkpt lat="50.2273688838" lon="6.6626875754"><ele>439.90</ele><time>2026-04-27T07:58:09Z</time></trkpt><trkpt lat="50.2273686323" lon="6.6626869887"><ele>439.97</ele><time>2026-04-27T07:58:10Z</time></trkpt><trkpt lat="50.2273790259" lon="6.6626868211"><ele>438.26</ele><time>2026-04-27T07:58:53Z</time></trkpt><trkpt lat="50.2273952868" lon="6.6626706440"><ele>439.67</ele><time>2026-04-27T07:59:45Z</time></trkpt><trkpt lat="50.2273947001" lon="6.6626734100"><ele>441.22</ele><time>2026-04-27T07:59:54Z</time></trkpt><trkpt lat="50.2273917664" lon="6.6626761761"><ele>438.06</ele><time>2026-04-27T08:00:09Z</time></trkpt><trkpt lat="50.2273917664" lon="6.6626762599"><ele>437.19</ele><time>2026-04-27T08:00:11Z</time></trkpt><trkpt lat="50.2273916826" lon="6.6626765113"><ele>441.55</ele><time>2026-04-27T08:00:17Z</time></trkpt><trkpt lat="50.2273914311" lon="6.6626779363"><ele>444.98</ele><time>2026-04-27T08:00:19Z</time></trkpt><trkpt lat="50.2273911797" lon="6.6626786068"><ele>445.93</ele><time>2026-04-27T08:00:21Z</time></trkpt><trkpt lat="50.2273906767" lon="6.6626800317"><ele>444.53</ele><time>2026-04-27T08:00:25Z</time></trkpt><trkpt lat="50.2273853961" lon="6.6626706440"><ele>442.78</ele><time>2026-04-27T08:01:01Z</time></trkpt><trkpt lat="50.2273715660" lon="6.6626936104"><ele>444.24</ele><time>2026-04-27T08:01:21Z</time></trkpt><trkpt lat="50.2273688000" lon="6.6627073567"><ele>443.19</ele><time>2026-04-27T08:01:33Z</time></trkpt><trkpt lat="50.2273726556" lon="6.6627032496"><ele>442.76</ele><time>2026-04-27T08:01:53Z</time></trkpt><trkpt lat="50.2273910120" lon="6.6627771780"><ele>443.06</ele><time>2026-04-27T08:02:04Z</time></trkpt><trkpt lat="50.2274154034" lon="6.6628630925"><ele>443.27</ele><time>2026-04-27T08:02:19Z</time></trkpt><trkpt lat="50.2274769265" lon="6.6630340833"><ele>444.53</ele><time>2026-04-27T08:02:34Z</time></trkpt><trkpt lat="50.2275144774" lon="6.6632477380"><ele>445.08</ele><time>2026-04-27T08:02:48Z</time></trkpt><trkpt lat="50.2275589015" lon="6.6634548549"><ele>445.33</ele><time>2026-04-27T08:03:02Z</time></trkpt><trkpt lat="50.2275960334" lon="6.6636645701"><ele>445.66</ele><time>2026-04-27T08:03:18Z</time></trkpt><trkpt lat="50.2276381105" lon="6.6638317052"><ele>447.02</ele><time>2026-04-27T08:03:33Z</time></trkpt><trkpt lat="50.2276784275" lon="6.6640542448"><ele>448.47</ele><time>2026-04-27T08:03:51Z</time></trkpt><trkpt lat="50.2276640106" lon="6.6641211323"><ele>448.79</ele><time>2026-04-27T08:03:56Z</time></trkpt><trkpt lat="50.2276314050" lon="6.6643092223"><ele>448.99</ele><time>2026-04-27T08:04:11Z</time></trkpt><trkpt lat="50.2275496814" lon="6.6645293310"><ele>448.62</ele><time>2026-04-27T08:04:30Z</time></trkpt><trkpt lat="50.2274957858" lon="6.6647837218"><ele>447.94</ele><time>2026-04-27T08:04:47Z</time></trkpt><trkpt lat="50.2274663653" lon="6.6650480870"><ele>447.15</ele><time>2026-04-27T08:05:06Z</time></trkpt><trkpt lat="50.2274686284" lon="6.6651049163"><ele>446.05</ele><time>2026-04-27T08:05:19Z</time></trkpt><trkpt lat="50.2274523675" lon="6.6651687026"><ele>446.79</ele><time>2026-04-27T08:05:41Z</time></trkpt><trkpt lat="50.2273931913" lon="6.6653214209"><ele>447.15</ele><time>2026-04-27T08:05:54Z</time></trkpt><trkpt lat="50.2273485996" lon="6.6654643323"><ele>446.70</ele><time>2026-04-27T08:06:07Z</time></trkpt><trkpt lat="50.2273682132" lon="6.6655587964"><ele>446.66</ele><time>2026-04-27T08:06:24Z</time></trkpt><trkpt lat="50.2274580672" lon="6.6654958483"><ele>449.51</ele><time>2026-04-27T08:06:47Z</time></trkpt><trkpt lat="50.2275503520" lon="6.6654701997"><ele>451.78</ele><time>2026-04-27T08:07:08Z</time></trkpt><trkpt lat="50.2276527788" lon="6.6654551961"><ele>454.21</ele><time>2026-04-27T08:07:28Z</time></trkpt><trkpt lat="50.2276828699" lon="6.6655038111"><ele>456.53</ele><time>2026-04-27T08:07:47Z</time></trkpt><trkpt lat="50.2276406251" lon="6.6656849440"><ele>458.86</ele><time>2026-04-27T08:08:10Z</time></trkpt><trkpt lat="50.2275633439" lon="6.6658863612"><ele>458.51</ele><time>2026-04-27T08:08:30Z</time></trkpt><trkpt lat="50.2274734061" lon="6.6661068052"><ele>458.13</ele><time>2026-04-27T08:08:50Z</time></trkpt><trkpt lat="50.2273972146" lon="6.6663295124"><ele>458.30</ele><time>2026-04-27T08:09:11Z</time></trkpt><trkpt lat="50.2272764314" lon="6.6664996650"><ele>459.46</ele><time>2026-04-27T08:09:30Z</time></trkpt><trkpt lat="50.2272221167" lon="6.6666564066"><ele>459.33</ele><time>2026-04-27T08:09:48Z</time></trkpt><trkpt lat="50.2272284031" lon="6.6666825581"><ele>458.43</ele><time>2026-04-27T08:10:05Z</time></trkpt><trkpt lat="50.2272042632" lon="6.6669206880"><ele>458.58</ele><time>2026-04-27T08:10:22Z</time></trkpt><trkpt lat="50.2271948755" lon="6.6671975423"><ele>458.78</ele><time>2026-04-27T08:10:41Z</time></trkpt><trkpt lat="50.2271724958" lon="6.6674391925"><ele>459.93</ele><time>2026-04-27T08:10:59Z</time></trkpt><trkpt lat="50.2271565702" lon="6.6676536016"><ele>461.55</ele><time>2026-04-27T08:11:19Z</time></trkpt><trkpt lat="50.2271543071" lon="6.6678897198"><ele>463.99</ele><time>2026-04-27T08:11:42Z</time></trkpt><trkpt lat="50.2271279879" lon="6.6679621395"><ele>463.15</ele><time>2026-04-27T08:12:05Z</time></trkpt><trkpt lat="50.2271235455" lon="6.6679633968"><ele>462.42</ele><time>2026-04-27T08:12:07Z</time></trkpt><trkpt lat="50.2271006629" lon="6.6680084076"><ele>465.64</ele><time>2026-04-27T08:12:12Z</time></trkpt><trkpt lat="50.2270985674" lon="6.6680219863"><ele>465.90</ele><time>2026-04-27T08:12:13Z</time></trkpt><trkpt lat="50.2269775327" lon="6.6682513151"><ele>465.14</ele><time>2026-04-27T08:12:35Z</time></trkpt><trkpt lat="50.2268611919" lon="6.6685029399"><ele>464.73</ele><time>2026-04-27T08:12:54Z</time></trkpt><trkpt lat="50.2268576715" lon="6.6685186140"><ele>464.71</ele><time>2026-04-27T08:12:55Z</time></trkpt><trkpt lat="50.2268075477" lon="6.6686380561"><ele>464.13</ele><time>2026-04-27T08:13:07Z</time></trkpt><trkpt lat="50.2267214656" lon="6.6688347794"><ele>462.81</ele><time>2026-04-27T08:13:25Z</time></trkpt><trkpt lat="50.2266063821" lon="6.6690451652"><ele>460.78</ele><time>2026-04-27T08:13:43Z</time></trkpt><trkpt lat="50.2265287656" lon="6.6692679562"><ele>458.85</ele><time>2026-04-27T08:14:01Z</time></trkpt><trkpt lat="50.2264585253" lon="6.6694454849"><ele>457.09</ele><time>2026-04-27T08:14:18Z</time></trkpt><trkpt lat="50.2263769694" lon="6.6695973650"><ele>455.17</ele><time>2026-04-27T08:14:36Z</time></trkpt><trkpt lat="50.2264177054" lon="6.6694650147"><ele>455.11</ele><time>2026-04-27T08:14:51Z</time></trkpt><trkpt lat="50.2264673263" lon="6.6694465745"><ele>456.56</ele><time>2026-04-27T08:15:07Z</time></trkpt><trkpt lat="50.2264866885" lon="6.6694726422"><ele>459.53</ele><time>2026-04-27T08:15:30Z</time></trkpt><trkpt lat="50.2264712658" lon="6.6694530286"><ele>461.04</ele><time>2026-04-27T08:15:54Z</time></trkpt><trkpt lat="50.2264182921" lon="6.6693989653"><ele>458.40</ele><time>2026-04-27T08:16:15Z</time></trkpt><trkpt lat="50.2264183760" lon="6.6693956964"><ele>455.85</ele><time>2026-04-27T08:16:40Z</time></trkpt><trkpt lat="50.2264190465" lon="6.6694345884"><ele>455.72</ele><time>2026-04-27T08:17:10Z</time></trkpt><trkpt lat="50.2263467945" lon="6.6695606522"><ele>454.33</ele><time>2026-04-27T08:17:25Z</time></trkpt><trkpt lat="50.2263074834" lon="6.6695659328"><ele>453.94</ele><time>2026-04-27T08:17:50Z</time></trkpt><trkpt lat="50.2263283543" lon="6.6695808526"><ele>450.82</ele><time>2026-04-27T08:18:03Z</time></trkpt><trkpt lat="50.2263202239" lon="6.6695847921"><ele>454.36</ele><time>2026-04-27T08:18:11Z</time></trkpt><trkpt lat="50.2263184637" lon="6.6695824452"><ele>454.66</ele><time>2026-04-27T08:18:12Z</time></trkpt><trkpt lat="50.2262836788" lon="6.6697196569"><ele>453.83</ele><time>2026-04-27T08:18:27Z</time></trkpt><trkpt lat="50.2262017038" lon="6.6698608920"><ele>452.39</ele><time>2026-04-27T08:18:45Z</time></trkpt><trkpt lat="50.2262036316" lon="6.6699146200"><ele>452.44</ele><time>2026-04-27T08:19:11Z</time></trkpt><trkpt lat="50.2261679247" lon="6.6700146161"><ele>451.39</ele><time>2026-04-27T08:19:33Z</time></trkpt><trkpt lat="50.2261789050" lon="6.6700384207"><ele>450.93</ele><time>2026-04-27T08:19:43Z</time></trkpt><trkpt lat="50.2261452936" lon="6.6700766422"><ele>450.47</ele><time>2026-04-27T08:20:00Z</time></trkpt><trkpt lat="50.2261343971" lon="6.6701814998"><ele>448.67</ele><time>2026-04-27T08:20:16Z</time></trkpt><trkpt lat="50.2261190582" lon="6.6702710185"><ele>448.20</ele><time>2026-04-27T08:20:42Z</time></trkpt><trkpt lat="50.2261261828" lon="6.6703115031"><ele>448.19</ele><time>2026-04-27T08:21:02Z</time></trkpt><trkpt lat="50.2261363249" lon="6.6703653987"><ele>447.80</ele><time>2026-04-27T08:21:25Z</time></trkpt><trkpt lat="50.2261163760" lon="6.6703763790"><ele>448.01</ele><time>2026-04-27T08:21:53Z</time></trkpt><trkpt lat="50.2260982711" lon="6.6702904645"><ele>447.96</ele><time>2026-04-27T08:22:17Z</time></trkpt><trkpt lat="50.2260789089" lon="6.6702393349"><ele>448.10</ele><time>2026-04-27T08:22:52Z</time></trkpt><trkpt lat="50.2260804176" lon="6.6703696735"><ele>447.99</ele><time>2026-04-27T08:23:15Z</time></trkpt><trkpt lat="50.2260956727" lon="6.6705897823"><ele>446.90</ele><time>2026-04-27T08:23:34Z</time></trkpt><trkpt lat="50.2261176333" lon="6.6706839949"><ele>446.85</ele><time>2026-04-27T08:23:52Z</time></trkpt><trkpt lat="50.2261475567" lon="6.6708134115"><ele>446.38</ele><time>2026-04-27T08:24:10Z</time></trkpt><trkpt lat="50.2261675894" lon="6.6709038522"><ele>446.27</ele><time>2026-04-27T08:24:23Z</time></trkpt><trkpt lat="50.2261535916" lon="6.6709781997"><ele>445.81</ele><time>2026-04-27T08:24:44Z</time></trkpt><trkpt lat="50.2261612192" lon="6.6710138228"><ele>446.45</ele><time>2026-04-27T08:25:09Z</time></trkpt><trkpt lat="50.2261691820" lon="6.6710134037"><ele>446.18</ele><time>2026-04-27T08:25:36Z</time></trkpt><trkpt lat="50.2261617221" lon="6.6709964722"><ele>446.20</ele><time>2026-04-27T08:26:00Z</time></trkpt><trkpt lat="50.2261445392" lon="6.6709121503"><ele>446.23</ele><time>2026-04-27T08:26:16Z</time></trkpt><trkpt lat="50.2261375822" lon="6.6709653754"><ele>446.03</ele><time>2026-04-27T08:26:35Z</time></trkpt><trkpt lat="50.2261267696" lon="6.6710814647"><ele>445.80</ele><time>2026-04-27T08:26:54Z</time></trkpt><trkpt lat="50.2261258475" lon="6.6711374559"><ele>445.26</ele><time>2026-04-27T08:27:12Z</time></trkpt><trkpt lat="50.2261752170" lon="6.6712400503"><ele>444.43</ele><time>2026-04-27T08:27:36Z</time></trkpt><trkpt lat="50.2261973452" lon="6.6713025793"><ele>443.00</ele><time>2026-04-27T08:27:56Z</time></trkpt><trkpt lat="50.2261999436" lon="6.6713313293"><ele>440.95</ele><time>2026-04-27T08:28:13Z</time></trkpt><trkpt lat="50.2261980157" lon="6.6713371128"><ele>442.05</ele><time>2026-04-27T08:28:35Z</time></trkpt><trkpt lat="50.2262092475" lon="6.6713672038"><ele>442.65</ele><time>2026-04-27T08:29:02Z</time></trkpt><trkpt lat="50.2262459602" lon="6.6713946965"><ele>443.55</ele><time>2026-04-27T08:29:25Z</time></trkpt><trkpt lat="50.2263045497" lon="6.6713464167"><ele>445.18</ele><time>2026-04-27T08:29:44Z</time></trkpt><trkpt lat="50.2263254207" lon="6.6713112127"><ele>445.32</ele><time>2026-04-27T08:30:07Z</time></trkpt><trkpt lat="50.2263147756" lon="6.6712961253"><ele>445.26</ele><time>2026-04-27T08:30:31Z</time></trkpt><trkpt lat="50.2262968384" lon="6.6712932754"><ele>445.79</ele><time>2026-04-27T08:30:54Z</time></trkpt><trkpt lat="50.2262276039" lon="6.6712443251"><ele>443.74</ele><time>2026-04-27T08:31:15Z</time></trkpt><trkpt lat="50.2261998598" lon="6.6713980492"><ele>442.59</ele><time>2026-04-27T08:31:31Z</time></trkpt><trkpt lat="50.2262751292" lon="6.6716124583"><ele>442.31</ele><time>2026-04-27T08:31:51Z</time></trkpt><trkpt lat="50.2263784781" lon="6.6717288829"><ele>444.01</ele><time>2026-04-27T08:32:10Z</time></trkpt><trkpt lat="50.2264849283" lon="6.6718280409"><ele>446.23</ele><time>2026-04-27T08:32:30Z</time></trkpt><trkpt lat="50.2266472019" lon="6.6718694475"><ele>448.43</ele><time>2026-04-27T08:32:51Z</time></trkpt><trkpt lat="50.2266860940" lon="6.6720259376"><ele>450.96</ele><time>2026-04-27T08:33:13Z</time></trkpt><trkpt lat="50.2267091442" lon="6.6720346548"><ele>451.65</ele><time>2026-04-27T08:33:20Z</time></trkpt><trkpt lat="50.2267803904" lon="6.6718893126"><ele>454.41</ele><time>2026-04-27T08:33:41Z</time></trkpt><trkpt lat="50.2268054523" lon="6.6719205771"><ele>455.95</ele><time>2026-04-27T08:33:54Z</time></trkpt><trkpt lat="50.2267913707" lon="6.6720737983"><ele>458.13</ele><time>2026-04-27T08:34:13Z</time></trkpt><trkpt lat="50.2267985791" lon="6.6720615607"><ele>459.85</ele><time>2026-04-27T08:34:38Z</time></trkpt><trkpt lat="50.2267869283" lon="6.6720600519"><ele>455.74</ele><time>2026-04-27T08:34:57Z</time></trkpt><trkpt lat="50.2267890237" lon="6.6720562801"><ele>456.97</ele><time>2026-04-27T08:35:05Z</time></trkpt><trkpt lat="50.2267862577" lon="6.6720572021"><ele>460.31</ele><time>2026-04-27T08:35:09Z</time></trkpt><trkpt lat="50.2267845813" lon="6.6720613092"><ele>461.17</ele><time>2026-04-27T08:35:11Z</time></trkpt><trkpt lat="50.2268155105" lon="6.6720036417"><ele>460.64</ele><time>2026-04-27T08:35:29Z</time></trkpt><trkpt lat="50.2268195339" lon="6.6719620675"><ele>461.07</ele><time>2026-04-27T08:35:33Z</time></trkpt><trkpt lat="50.2268983237" lon="6.6718552820"><ele>462.02</ele><time>2026-04-27T08:35:51Z</time></trkpt><trkpt lat="50.2269535605" lon="6.6718671843"><ele>463.16</ele><time>2026-04-27T08:35:59Z</time></trkpt><trkpt lat="50.2270196937" lon="6.6720628180"><ele>465.76</ele><time>2026-04-27T08:36:19Z</time></trkpt><trkpt lat="50.2270282432" lon="6.6722016223"><ele>467.67</ele><time>2026-04-27T08:36:39Z</time></trkpt><trkpt lat="50.2270197775" lon="6.6721939947"><ele>467.67</ele><time>2026-04-27T08:37:05Z</time></trkpt><trkpt lat="50.2269631159" lon="6.6723568551"><ele>470.20</ele><time>2026-04-27T08:37:35Z</time></trkpt><trkpt lat="50.2269090526" lon="6.6726049595"><ele>473.23</ele><time>2026-04-27T08:38:03Z</time></trkpt><trkpt lat="50.2268923726" lon="6.6728302650"><ele>476.29</ele><time>2026-04-27T08:38:33Z</time></trkpt><trkpt lat="50.2268099785" lon="6.6728645470"><ele>478.86</ele><time>2026-04-27T08:38:59Z</time></trkpt><trkpt lat="50.2267604414" lon="6.6728114896"><ele>478.13</ele><time>2026-04-27T08:39:13Z</time></trkpt><trkpt lat="50.2267077193" lon="6.6727777943"><ele>476.72</ele><time>2026-04-27T08:39:26Z</time></trkpt><trkpt lat="50.2267015167" lon="6.6727644671"><ele>475.87</ele><time>2026-04-27T08:39:45Z</time></trkpt><trkpt lat="50.2267912868" lon="6.6727933008"><ele>476.12</ele><time>2026-04-27T08:40:19Z</time></trkpt><trkpt lat="50.2269780356" lon="6.6728078015"><ele>479.24</ele><time>2026-04-27T08:40:43Z</time></trkpt><trkpt lat="50.2272005752" lon="6.6726638004"><ele>482.22</ele><time>2026-04-27T08:41:12Z</time></trkpt><trkpt lat="50.2273662016" lon="6.6725436039"><ele>483.68</ele><time>2026-04-27T08:41:32Z</time></trkpt><trkpt lat="50.2275335882" lon="6.6725496389"><ele>485.83</ele><time>2026-04-27T08:41:55Z</time></trkpt><trkpt lat="50.2275427245" lon="6.6725275945"><ele>485.08</ele><time>2026-04-27T08:42:18Z</time></trkpt><trkpt lat="50.2275625058" lon="6.6724913009"><ele>485.78</ele><time>2026-04-27T08:42:37Z</time></trkpt><trkpt lat="50.2276860550" lon="6.6726506408"><ele>488.32</ele><time>2026-04-27T08:43:00Z</time></trkpt><trkpt lat="50.2278070059" lon="6.6728041135"><ele>490.61</ele><time>2026-04-27T08:43:20Z</time></trkpt><trkpt lat="50.2279335726" lon="6.6729672253"><ele>493.14</ele><time>2026-04-27T08:43:44Z</time></trkpt><trkpt lat="50.2280991990" lon="6.6729828157"><ele>493.77</ele><time>2026-04-27T08:44:04Z</time></trkpt><trkpt lat="50.2282513306" lon="6.6730253119"><ele>494.17</ele><time>2026-04-27T08:44:23Z</time></trkpt><trkpt lat="50.2283480577" lon="6.6731352825"><ele>494.64</ele><time>2026-04-27T08:44:39Z</time></trkpt><trkpt lat="50.2284457069" lon="6.6732972208"><ele>495.16</ele><time>2026-04-27T08:44:58Z</time></trkpt><trkpt lat="50.2285556775" lon="6.6733304970"><ele>494.84</ele><time>2026-04-27T08:45:20Z</time></trkpt><trkpt lat="50.2285555098" lon="6.6733286530"><ele>494.76</ele><time>2026-04-27T08:45:44Z</time></trkpt><trkpt lat="50.2285791468" lon="6.6733275633"><ele>493.22</ele><time>2026-04-27T08:47:37Z</time></trkpt><trkpt lat="50.2285819966" lon="6.6733247135"><ele>491.14</ele><time>2026-04-27T08:48:29Z</time></trkpt><trkpt lat="50.2286188770" lon="6.6733589955"><ele>494.32</ele><time>2026-04-27T08:48:35Z</time></trkpt><trkpt lat="50.2286269236" lon="6.6733677126"><ele>494.54</ele><time>2026-04-27T08:48:36Z</time></trkpt><trkpt lat="50.2286352217" lon="6.6733800340"><ele>494.34</ele><time>2026-04-27T08:48:37Z</time></trkpt><trkpt lat="50.2286648937" lon="6.6734272242"><ele>496.15</ele><time>2026-04-27T08:48:42Z</time></trkpt><trkpt lat="50.2288021054" lon="6.6736614145"><ele>494.28</ele><time>2026-04-27T08:49:04Z</time></trkpt><trkpt lat="50.2289143391" lon="6.6739387717"><ele>494.23</ele><time>2026-04-27T08:49:27Z</time></trkpt><trkpt lat="50.2290108148" lon="6.6742453817"><ele>495.25</ele><time>2026-04-27T08:49:50Z</time></trkpt><trkpt lat="50.2290727571" lon="6.6745146923"><ele>497.94</ele><time>2026-04-27T08:50:14Z</time></trkpt><trkpt lat="50.2291603480" lon="6.6747828294"><ele>500.45</ele><time>2026-04-27T08:50:38Z</time></trkpt><trkpt lat="50.2292284928" lon="6.6749393195"><ele>500.76</ele><time>2026-04-27T08:50:53Z</time></trkpt><trkpt lat="50.2293513715" lon="6.6749965679"><ele>501.20</ele><time>2026-04-27T08:51:08Z</time></trkpt><trkpt lat="50.2294341009" lon="6.6749710031"><ele>501.70</ele><time>2026-04-27T08:51:29Z</time></trkpt><trkpt lat="50.2294368669" lon="6.6749473661"><ele>502.32</ele><time>2026-04-27T08:51:50Z</time></trkpt><trkpt lat="50.2294883318" lon="6.6748659778"><ele>502.64</ele><time>2026-04-27T08:52:10Z</time></trkpt><trkpt lat="50.2296330873" lon="6.6747098230"><ele>504.68</ele><time>2026-04-27T08:52:33Z</time></trkpt><trkpt lat="50.2297780942" lon="6.6746134311"><ele>505.69</ele><time>2026-04-27T08:52:50Z</time></trkpt><trkpt lat="50.2297892421" lon="6.6746083181"><ele>505.75</ele><time>2026-04-27T08:52:51Z</time></trkpt><trkpt lat="50.2299387753" lon="6.6745623853"><ele>506.39</ele><time>2026-04-27T08:53:07Z</time></trkpt><trkpt lat="50.2300514281" lon="6.6745876987"><ele>507.45</ele><time>2026-04-27T08:53:21Z</time></trkpt><trkpt lat="50.2301225066" lon="6.6746115033"><ele>508.27</ele><time>2026-04-27T08:53:29Z</time></trkpt><trkpt lat="50.2302255202" lon="6.6746905446"><ele>509.35</ele><time>2026-04-27T08:53:45Z</time></trkpt><trkpt lat="50.2303617261" lon="6.6746274289"><ele>509.85</ele><time>2026-04-27T08:54:02Z</time></trkpt><trkpt lat="50.2304182202" lon="6.6746089049"><ele>510.74</ele><time>2026-04-27T08:54:15Z</time></trkpt><trkpt lat="50.2304334752" lon="6.6746317036"><ele>511.16</ele><time>2026-04-27T08:54:31Z</time></trkpt><trkpt lat="50.2303944994" lon="6.6745408438"><ele>511.96</ele><time>2026-04-27T08:54:46Z</time></trkpt><trkpt lat="50.2303658333" lon="6.6745018680"><ele>512.03</ele><time>2026-04-27T08:54:49Z</time></trkpt><trkpt lat="50.2303300425" lon="6.6743352357"><ele>510.86</ele><time>2026-04-27T08:55:04Z</time></trkpt><trkpt lat="50.2303284500" lon="6.6742704436"><ele>511.39</ele><time>2026-04-27T08:55:21Z</time></trkpt><trkpt lat="50.2302786615" lon="6.6741864569"><ele>510.42</ele><time>2026-04-27T08:55:30Z</time></trkpt><trkpt lat="50.2302681003" lon="6.6741837747"><ele>510.32</ele><time>2026-04-27T08:55:31Z</time></trkpt><trkpt lat="50.2302445471" lon="6.6741838586"><ele>510.17</ele><time>2026-04-27T08:55:33Z</time></trkpt><trkpt lat="50.2302333154" lon="6.6741877981"><ele>510.02</ele><time>2026-04-27T08:55:34Z</time></trkpt><trkpt lat="50.2302245982" lon="6.6741948389"><ele>509.87</ele><time>2026-04-27T08:55:35Z</time></trkpt><trkpt lat="50.2300546970" lon="6.6743386723"><ele>507.93</ele><time>2026-04-27T08:55:53Z</time></trkpt><trkpt lat="50.2298630867" lon="6.6745116748"><ele>506.33</ele><time>2026-04-27T08:56:13Z</time></trkpt><trkpt lat="50.2297519427" lon="6.6746073961"><ele>505.04</ele><time>2026-04-27T08:56:28Z</time></trkpt><trkpt lat="50.2297330834" lon="6.6746333800"><ele>503.79</ele><time>2026-04-27T08:56:33Z</time></trkpt><trkpt lat="50.2297173254" lon="6.6746484675"><ele>504.91</ele><time>2026-04-27T08:56:35Z</time></trkpt><trkpt lat="50.2296151500" lon="6.6747549176"><ele>504.41</ele><time>2026-04-27T08:56:51Z</time></trkpt><trkpt lat="50.2294833865" lon="6.6748511419"><ele>503.22</ele><time>2026-04-27T08:57:09Z</time></trkpt><trkpt lat="50.2294385433" lon="6.6750934627"><ele>501.85</ele><time>2026-04-27T08:57:29Z</time></trkpt><trkpt lat="50.2295558900" lon="6.6751864180"><ele>500.33</ele><time>2026-04-27T08:57:43Z</time></trkpt><trkpt lat="50.2297049202" lon="6.6753153317"><ele>499.87</ele><time>2026-04-27T08:58:00Z</time></trkpt><trkpt lat="50.2299006376" lon="6.6755159106"><ele>500.17</ele><time>2026-04-27T08:58:24Z</time></trkpt><trkpt lat="50.2300557029" lon="6.6756476741"><ele>501.65</ele><time>2026-04-27T08:58:44Z</time></trkpt><trkpt lat="50.2302183118" lon="6.6758226883"><ele>503.47</ele><time>2026-04-27T08:59:08Z</time></trkpt><trkpt lat="50.2303604688" lon="6.6759557929"><ele>505.96</ele><time>2026-04-27T08:59:31Z</time></trkpt><trkpt lat="50.2304779831" lon="6.6761400271"><ele>508.43</ele><time>2026-04-27T08:59:54Z</time></trkpt><trkpt lat="50.2304765582" lon="6.6762296297"><ele>505.62</ele><time>2026-04-27T09:00:24Z</time></trkpt><trkpt lat="50.2304762229" lon="6.6762316413"><ele>507.88</ele><time>2026-04-27T09:01:00Z</time></trkpt><trkpt lat="50.2304833476" lon="6.6762052383"><ele>507.57</ele><time>2026-04-27T09:01:18Z</time></trkpt><trkpt lat="50.2305274364" lon="6.6762090940"><ele>507.59</ele><time>2026-04-27T09:01:34Z</time></trkpt><trkpt lat="50.2306598704" lon="6.6762332339"><ele>505.91</ele><time>2026-04-27T09:01:54Z</time></trkpt><trkpt lat="50.2308467869" lon="6.6762986965"><ele>503.71</ele><time>2026-04-27T09:02:13Z</time></trkpt><trkpt lat="50.2309907041" lon="6.6764358245"><ele>500.66</ele><time>2026-04-27T09:02:35Z</time></trkpt><trkpt lat="50.2311255690" lon="6.6765983496"><ele>497.46</ele><time>2026-04-27T09:02:59Z</time></trkpt><trkpt lat="50.2311708312" lon="6.6766778938"><ele>496.81</ele><time>2026-04-27T09:03:14Z</time></trkpt><trkpt lat="50.2312813886" lon="6.6767048836"><ele>495.73</ele><time>2026-04-27T09:03:27Z</time></trkpt><trkpt lat="50.2312794607" lon="6.6767144389"><ele>493.87</ele><time>2026-04-27T09:03:41Z</time></trkpt><trkpt lat="50.2313206159" lon="6.6767161153"><ele>491.91</ele><time>2026-04-27T09:03:58Z</time></trkpt><trkpt lat="50.2313311771" lon="6.6767175402"><ele>491.91</ele><time>2026-04-27T09:03:59Z</time></trkpt><trkpt lat="50.2313425764" lon="6.6767187975"><ele>491.99</ele><time>2026-04-27T09:04:00Z</time></trkpt><trkpt lat="50.2315236256" lon="6.6767056379"><ele>492.29</ele><time>2026-04-27T09:04:17Z</time></trkpt><trkpt lat="50.2316897549" lon="6.6766769718"><ele>491.76</ele><time>2026-04-27T09:04:33Z</time></trkpt><trkpt lat="50.2318899147" lon="6.6766489763"><ele>491.19</ele><time>2026-04-27T09:04:52Z</time></trkpt><trkpt lat="50.2320776694" lon="6.6766334698"><ele>490.73</ele><time>2026-04-27T09:05:10Z</time></trkpt><trkpt lat="50.2321754862" lon="6.6766460426"><ele>491.12</ele><time>2026-04-27T09:05:22Z</time></trkpt><trkpt lat="50.2323189843" lon="6.6766477190"><ele>492.76</ele><time>2026-04-27T09:05:41Z</time></trkpt><trkpt lat="50.2324815933" lon="6.6766239144"><ele>495.03</ele><time>2026-04-27T09:06:04Z</time></trkpt><trkpt lat="50.2325980179" lon="6.6766053904"><ele>497.07</ele><time>2026-04-27T09:06:22Z</time></trkpt><trkpt lat="50.2327143587" lon="6.6765836813"><ele>499.16</ele><time>2026-04-27T09:06:40Z</time></trkpt><trkpt lat="50.2327910531" lon="6.6764666699"><ele>500.95</ele><time>2026-04-27T09:06:56Z</time></trkpt><trkpt lat="50.2328797337" lon="6.6763818450"><ele>501.90</ele><time>2026-04-27T09:07:12Z</time></trkpt><trkpt lat="50.2329757065" lon="6.6764659155"><ele>502.08</ele><time>2026-04-27T09:07:28Z</time></trkpt><trkpt lat="50.2330539934" lon="6.6765417717"><ele>502.29</ele><time>2026-04-27T09:07:42Z</time></trkpt><trkpt lat="50.2331109904" lon="6.6766310390"><ele>502.80</ele><time>2026-04-27T09:08:01Z</time></trkpt><trkpt lat="50.2331166901" lon="6.6766061448"><ele>503.70</ele><time>2026-04-27T09:08:23Z</time></trkpt><trkpt lat="50.2331141755" lon="6.6765969247"><ele>502.90</ele><time>2026-04-27T09:08:44Z</time></trkpt><trkpt lat="50.2331492957" lon="6.6766112577"><ele>503.40</ele><time>2026-04-27T09:09:01Z</time></trkpt><trkpt lat="50.2331993356" lon="6.6766420193"><ele>503.25</ele><time>2026-04-27T09:09:08Z</time></trkpt><trkpt lat="50.2334051114" lon="6.6767861042"><ele>503.58</ele><time>2026-04-27T09:09:31Z</time></trkpt><trkpt lat="50.2335676365" lon="6.6769048758"><ele>504.25</ele><time>2026-04-27T09:09:49Z</time></trkpt><trkpt lat="50.2337011602" lon="6.6770001780"><ele>505.69</ele><time>2026-04-27T09:10:05Z</time></trkpt><trkpt lat="50.2338462509" lon="6.6771165188"><ele>506.65</ele><time>2026-04-27T09:10:22Z</time></trkpt><trkpt lat="50.2340030763" lon="6.6772465222"><ele>507.51</ele><time>2026-04-27T09:10:40Z</time></trkpt><trkpt lat="50.2341335826" lon="6.6773693170"><ele>507.07</ele><time>2026-04-27T09:10:57Z</time></trkpt><trkpt lat="50.2342445590" lon="6.6774528008"><ele>508.01</ele><time>2026-04-27T09:11:10Z</time></trkpt><trkpt lat="50.2343782503" lon="6.6775486898"><ele>509.02</ele><time>2026-04-27T09:11:26Z</time></trkpt><trkpt lat="50.2345152106" lon="6.6776667908"><ele>510.23</ele><time>2026-04-27T09:11:43Z</time></trkpt><trkpt lat="50.2346529253" lon="6.6778154019"><ele>510.89</ele><time>2026-04-27T09:12:01Z</time></trkpt><trkpt lat="50.2346285339" lon="6.6780205909"><ele>511.64</ele><time>2026-04-27T09:12:16Z</time></trkpt><trkpt lat="50.2345734648" lon="6.6782123689"><ele>511.07</ele><time>2026-04-27T09:12:31Z</time></trkpt><trkpt lat="50.2345390152" lon="6.6783149634"><ele>510.87</ele><time>2026-04-27T09:12:39Z</time></trkpt><trkpt lat="50.2345280349" lon="6.6783407796"><ele>510.75</ele><time>2026-04-27T09:12:41Z</time></trkpt><trkpt lat="50.2344800066" lon="6.6785335634"><ele>510.02</ele><time>2026-04-27T09:12:56Z</time></trkpt><trkpt lat="50.2345421165" lon="6.6786980163"><ele>509.91</ele><time>2026-04-27T09:13:11Z</time></trkpt><trkpt lat="50.2345541026" lon="6.6787263472"><ele>509.48</ele><time>2026-04-27T09:13:24Z</time></trkpt><trkpt lat="50.2345690224" lon="6.6787338909"><ele>506.46</ele><time>2026-04-27T09:14:01Z</time></trkpt><trkpt lat="50.2346038073" lon="6.6788044665"><ele>508.14</ele><time>2026-04-27T09:14:09Z</time></trkpt><trkpt lat="50.2346237563" lon="6.6788101662"><ele>506.62</ele><time>2026-04-27T09:14:28Z</time></trkpt><trkpt lat="50.2347096708" lon="6.6789481323"><ele>508.12</ele><time>2026-04-27T09:14:45Z</time></trkpt><trkpt lat="50.2348346449" lon="6.6791083105"><ele>509.28</ele><time>2026-04-27T09:15:03Z</time></trkpt><trkpt lat="50.2349315397" lon="6.6793020163"><ele>509.37</ele><time>2026-04-27T09:15:20Z</time></trkpt><trkpt lat="50.2350569330" lon="6.6795347817"><ele>509.15</ele><time>2026-04-27T09:15:38Z</time></trkpt><trkpt lat="50.2351933904" lon="6.6797686368"><ele>508.37</ele><time>2026-04-27T09:15:55Z</time></trkpt><trkpt lat="50.2352756169" lon="6.6798981372"><ele>508.14</ele><time>2026-04-27T09:16:03Z</time></trkpt><trkpt lat="50.2353825700" lon="6.6799633484"><ele>507.32</ele><time>2026-04-27T09:16:14Z</time></trkpt><trkpt lat="50.2355409879" lon="6.6798649449"><ele>507.66</ele><time>2026-04-27T09:16:31Z</time></trkpt><trkpt lat="50.2357161697" lon="6.6797560640"><ele>507.53</ele><time>2026-04-27T09:16:48Z</time></trkpt><trkpt lat="50.2359181736" lon="6.6797016654"><ele>506.93</ele><time>2026-04-27T09:17:06Z</time></trkpt><trkpt lat="50.2361387853" lon="6.6796817165"><ele>505.59</ele><time>2026-04-27T09:17:26Z</time></trkpt><trkpt lat="50.2361471672" lon="6.6796736699"><ele>503.83</ele><time>2026-04-27T09:17:30Z</time></trkpt><trkpt lat="50.2361619193" lon="6.6796798725"><ele>505.66</ele><time>2026-04-27T09:17:53Z</time></trkpt><trkpt lat="50.2361642662" lon="6.6796760168"><ele>504.52</ele><time>2026-04-27T09:18:41Z</time></trkpt><trkpt lat="50.2361695468" lon="6.6796729155"><ele>501.24</ele><time>2026-04-27T09:19:16Z</time></trkpt><trkpt lat="50.2361696307" lon="6.6796723288"><ele>501.03</ele><time>2026-04-27T09:19:17Z</time></trkpt><trkpt lat="50.2361723967" lon="6.6796723288"><ele>504.47</ele><time>2026-04-27T09:19:24Z</time></trkpt><trkpt lat="50.2361723129" lon="6.6796718258"><ele>504.70</ele><time>2026-04-27T09:19:25Z</time></trkpt><trkpt lat="50.2362274658" lon="6.6796760168"><ele>504.66</ele><time>2026-04-27T09:19:45Z</time></trkpt><trkpt lat="50.2362518571" lon="6.6796720773"><ele>504.55</ele><time>2026-04-27T09:19:47Z</time></trkpt><trkpt lat="50.2364313137" lon="6.6796450038"><ele>503.57</ele><time>2026-04-27T09:20:04Z</time></trkpt><trkpt lat="50.2366852853" lon="6.6796125658"><ele>502.72</ele><time>2026-04-27T09:20:26Z</time></trkpt><trkpt lat="50.2368850261" lon="6.6795979813"><ele>502.37</ele><time>2026-04-27T09:20:44Z</time></trkpt><trkpt lat="50.2370737866" lon="6.6795785353"><ele>502.17</ele><time>2026-04-27T09:21:01Z</time></trkpt><trkpt lat="50.2373262495" lon="6.6795560718"><ele>502.06</ele><time>2026-04-27T09:21:24Z</time></trkpt><trkpt lat="50.2375228051" lon="6.6795292497"><ele>501.34</ele><time>2026-04-27T09:21:42Z</time></trkpt><trkpt lat="50.2377238870" lon="6.6794988234"><ele>500.46</ele><time>2026-04-27T09:22:01Z</time></trkpt><trkpt lat="50.2378357016" lon="6.6794286668"><ele>499.49</ele><time>2026-04-27T09:22:15Z</time></trkpt><trkpt lat="50.2378333546" lon="6.6793813091"><ele>498.70</ele><time>2026-04-27T09:22:26Z</time></trkpt><trkpt lat="50.2378364559" lon="6.6793647967"><ele>498.52</ele><time>2026-04-27T09:22:27Z</time></trkpt><trkpt lat="50.2378386352" lon="6.6793488711"><ele>498.34</ele><time>2026-04-27T09:22:28Z</time></trkpt><trkpt lat="50.2378902677" lon="6.6791042872"><ele>499.24</ele><time>2026-04-27T09:22:42Z</time></trkpt><trkpt lat="50.2379757632" lon="6.6787483077"><ele>501.00</ele><time>2026-04-27T09:23:02Z</time></trkpt><trkpt lat="50.2380563971" lon="6.6783774924"><ele>502.81</ele><time>2026-04-27T09:23:23Z</time></trkpt><trkpt lat="50.2381028328" lon="6.6780160647"><ele>503.94</ele><time>2026-04-27T09:23:42Z</time></trkpt><trkpt lat="50.2381397970" lon="6.6777198482"><ele>504.58</ele><time>2026-04-27T09:23:58Z</time></trkpt><trkpt lat="50.2381483465" lon="6.6777087841"><ele>504.58</ele><time>2026-04-27T09:23:59Z</time></trkpt><trkpt lat="50.2382242866" lon="6.6775541380"><ele>505.29</ele><time>2026-04-27T09:24:10Z</time></trkpt><trkpt lat="50.2383301500" lon="6.6775281541"><ele>506.00</ele><time>2026-04-27T09:24:20Z</time></trkpt><trkpt lat="50.2384778392" lon="6.6775479354"><ele>505.09</ele><time>2026-04-27T09:24:38Z</time></trkpt><trkpt lat="50.2384448983" lon="6.6775362007"><ele>505.38</ele><time>2026-04-27T09:25:01Z</time></trkpt><trkpt lat="50.2384334151" lon="6.6775329318"><ele>505.43</ele><time>2026-04-27T09:25:02Z</time></trkpt><trkpt lat="50.2382781822" lon="6.6774949618"><ele>505.21</ele><time>2026-04-27T09:25:16Z</time></trkpt><trkpt lat="50.2381785214" lon="6.6774647031"><ele>505.58</ele><time>2026-04-27T09:25:31Z</time></trkpt><trkpt lat="50.2381838020" lon="6.6774835624"><ele>505.46</ele><time>2026-04-27T09:25:52Z</time></trkpt><trkpt lat="50.2382175811" lon="6.6774776950"><ele>506.27</ele><time>2026-04-27T09:26:03Z</time></trkpt><trkpt lat="50.2382682078" lon="6.6775006615"><ele>506.10</ele><time>2026-04-27T09:26:17Z</time></trkpt><trkpt lat="50.2382834628" lon="6.6775165033"><ele>505.49</ele><time>2026-04-27T09:26:35Z</time></trkpt><trkpt lat="50.2382827085" lon="6.6775169224"><ele>506.46</ele><time>2026-04-27T09:27:02Z</time></trkpt><trkpt lat="50.2382751647" lon="6.6774867475"><ele>506.36</ele><time>2026-04-27T09:27:07Z</time></trkpt><trkpt lat="50.2382690459" lon="6.6774724983"><ele>506.26</ele><time>2026-04-27T09:27:08Z</time></trkpt><trkpt lat="50.2382616699" lon="6.6774585843"><ele>506.13</ele><time>2026-04-27T09:27:09Z</time></trkpt><trkpt lat="50.2382034156" lon="6.6772326920"><ele>505.90</ele><time>2026-04-27T09:27:24Z</time></trkpt><trkpt lat="50.2382200118" lon="6.6767923068"><ele>506.36</ele><time>2026-04-27T09:27:49Z</time></trkpt><trkpt lat="50.2382221073" lon="6.6766148619"><ele>506.78</ele><time>2026-04-27T09:28:04Z</time></trkpt><trkpt lat="50.2382249571" lon="6.6765812505"><ele>506.76</ele><time>2026-04-27T09:28:06Z</time></trkpt><trkpt lat="50.2382153179" lon="6.6763560288"><ele>506.91</ele><time>2026-04-27T09:28:20Z</time></trkpt><trkpt lat="50.2382043377" lon="6.6763175558"><ele>506.83</ele><time>2026-04-27T09:28:30Z</time></trkpt><trkpt lat="50.2381959558" lon="6.6763276141"><ele>506.64</ele><time>2026-04-27T09:28:31Z</time></trkpt><trkpt lat="50.2381874062" lon="6.6763350740"><ele>506.39</ele><time>2026-04-27T09:28:32Z</time></trkpt><trkpt lat="50.2381777670" lon="6.6763411090"><ele>506.10</ele><time>2026-04-27T09:28:33Z</time></trkpt><trkpt lat="50.2381679602" lon="6.6763453837"><ele>505.85</ele><time>2026-04-27T09:28:34Z</time></trkpt><trkpt lat="50.2380005736" lon="6.6763378400"><ele>505.59</ele><time>2026-04-27T09:28:49Z</time></trkpt><trkpt lat="50.2378372941" lon="6.6762282047"><ele>505.51</ele><time>2026-04-27T09:29:07Z</time></trkpt><trkpt lat="50.2378175128" lon="6.6762251034"><ele>505.86</ele><time>2026-04-27T09:29:17Z</time></trkpt><trkpt lat="50.2378066164" lon="6.6762237623"><ele>506.06</ele><time>2026-04-27T09:29:18Z</time></trkpt><trkpt lat="50.2377963904" lon="6.6762216669"><ele>506.13</ele><time>2026-04-27T09:29:19Z</time></trkpt><trkpt lat="50.2375832386" lon="6.6761661787"><ele>505.54</ele><time>2026-04-27T09:29:39Z</time></trkpt><trkpt lat="50.2374512237" lon="6.6762782447"><ele>505.81</ele><time>2026-04-27T09:29:54Z</time></trkpt><trkpt lat="50.2374507207" lon="6.6762412805"><ele>506.48</ele><time>2026-04-27T09:30:05Z</time></trkpt><trkpt lat="50.2374363039" lon="6.6761761531"><ele>504.75</ele><time>2026-04-27T09:30:19Z</time></trkpt><trkpt lat="50.2374078054" lon="6.6761563718"><ele>506.64</ele><time>2026-04-27T09:30:24Z</time></trkpt><trkpt lat="50.2373622078" lon="6.6761314776"><ele>506.73</ele><time>2026-04-27T09:30:29Z</time></trkpt><trkpt lat="50.2372172009" lon="6.6760909930"><ele>506.66</ele><time>2026-04-27T09:30:44Z</time></trkpt><trkpt lat="50.2370372415" lon="6.6760023125"><ele>506.82</ele><time>2026-04-27T09:31:03Z</time></trkpt><trkpt lat="50.2370297816" lon="6.6759778373"><ele>505.58</ele><time>2026-04-27T09:31:16Z</time></trkpt><trkpt lat="50.2369436994" lon="6.6759310663"><ele>506.13</ele><time>2026-04-27T09:31:34Z</time></trkpt><trkpt lat="50.2367401030" lon="6.6758947726"><ele>507.49</ele><time>2026-04-27T09:31:56Z</time></trkpt><trkpt lat="50.2365536056" lon="6.6758668609"><ele>506.12</ele><time>2026-04-27T09:32:13Z</time></trkpt><trkpt lat="50.2365054935" lon="6.6758704651"><ele>505.80</ele><time>2026-04-27T09:32:19Z</time></trkpt><trkpt lat="50.2364942618" lon="6.6758688726"><ele>505.66</ele><time>2026-04-27T09:32:20Z</time></trkpt><trkpt lat="50.2364834491" lon="6.6758686211"><ele>505.51</ele><time>2026-04-27T09:32:21Z</time></trkpt><trkpt lat="50.2362559643" lon="6.6758998856"><ele>504.67</ele><time>2026-04-27T09:32:42Z</time></trkpt><trkpt lat="50.2360480092" lon="6.6759334970"><ele>504.94</ele><time>2026-04-27T09:33:01Z</time></trkpt><trkpt lat="50.2358391322" lon="6.6759606544"><ele>505.34</ele><time>2026-04-27T09:33:20Z</time></trkpt><trkpt lat="50.2356193587" lon="6.6759941820"><ele>505.76</ele><time>2026-04-27T09:33:41Z</time></trkpt><trkpt lat="50.2353907004" lon="6.6760226805"><ele>506.10</ele><time>2026-04-27T09:34:01Z</time></trkpt><trkpt lat="50.2352709230" lon="6.6760467365"><ele>506.20</ele><time>2026-04-27T09:34:13Z</time></trkpt><trkpt lat="50.2351586893" lon="6.6760628298"><ele>505.70</ele><time>2026-04-27T09:34:28Z</time></trkpt><trkpt lat="50.2349980082" lon="6.6760149691"><ele>506.65</ele><time>2026-04-27T09:34:46Z</time></trkpt><trkpt lat="50.2348523308" lon="6.6759117041"><ele>507.45</ele><time>2026-04-27T09:35:03Z</time></trkpt><trkpt lat="50.2346964274" lon="6.6757849697"><ele>508.34</ele><time>2026-04-27T09:35:22Z</time></trkpt><trkpt lat="50.2346784901" lon="6.6757723968"><ele>508.40</ele><time>2026-04-27T09:35:24Z</time></trkpt><trkpt lat="50.2345416136" lon="6.6756554693"><ele>509.15</ele><time>2026-04-27T09:35:41Z</time></trkpt><trkpt lat="50.2343908232" lon="6.6754712351"><ele>510.34</ele><time>2026-04-27T09:36:02Z</time></trkpt><trkpt lat="50.2343007177" lon="6.6752580833"><ele>511.12</ele><time>2026-04-27T09:36:19Z</time></trkpt><trkpt lat="50.2342336625" lon="6.6750325263"><ele>512.07</ele><time>2026-04-27T09:36:36Z</time></trkpt><trkpt lat="50.2341708820" lon="6.6748182848"><ele>513.07</ele><time>2026-04-27T09:36:53Z</time></trkpt><trkpt lat="50.2340749092" lon="6.6746390797"><ele>514.26</ele><time>2026-04-27T09:37:10Z</time></trkpt><trkpt lat="50.2339376975" lon="6.6745383292"><ele>515.18</ele><time>2026-04-27T09:37:27Z</time></trkpt><trkpt lat="50.2338693012" lon="6.6745368205"><ele>515.47</ele><time>2026-04-27T09:37:42Z</time></trkpt><trkpt lat="50.2338721510" lon="6.6745408438"><ele>515.61</ele><time>2026-04-27T09:38:01Z</time></trkpt><trkpt lat="50.2338449936" lon="6.6745480523"><ele>515.92</ele><time>2026-04-27T09:38:12Z</time></trkpt><trkpt lat="50.2338241227" lon="6.6745461244"><ele>515.97</ele><time>2026-04-27T09:38:14Z</time></trkpt><trkpt lat="50.2335858252" lon="6.6745276842"><ele>515.67</ele><time>2026-04-27T09:38:37Z</time></trkpt><trkpt lat="50.2333531436" lon="6.6744466312"><ele>514.89</ele><time>2026-04-27T09:38:59Z</time></trkpt><trkpt lat="50.2331156842" lon="6.6742728744"><ele>514.35</ele><time>2026-04-27T09:39:24Z</time></trkpt><trkpt lat="50.2329114173" lon="6.6741310526"><ele>513.64</ele><time>2026-04-27T09:39:45Z</time></trkpt><trkpt lat="50.2326521650" lon="6.6739693657"><ele>513.75</ele><time>2026-04-27T09:40:11Z</time></trkpt><trkpt lat="50.2324224170" lon="6.6738285497"><ele>514.15</ele><time>2026-04-27T09:40:34Z</time></trkpt><trkpt lat="50.2322029788" lon="6.6736941878"><ele>515.49</ele><time>2026-04-27T09:40:57Z</time></trkpt><trkpt lat="50.2320570499" lon="6.6735767573"><ele>517.06</ele><time>2026-04-27T09:41:15Z</time></trkpt><trkpt lat="50.2320351731" lon="6.6735509411"><ele>517.33</ele><time>2026-04-27T09:41:18Z</time></trkpt><trkpt lat="50.2319184970" lon="6.6733895056"><ele>518.21</ele><time>2026-04-27T09:41:35Z</time></trkpt><trkpt lat="50.2317812014" lon="6.6731709894"><ele>518.43</ele><time>2026-04-27T09:41:55Z</time></trkpt><trkpt lat="50.2316933591" lon="6.6731285769"><ele>518.40</ele><time>2026-04-27T09:42:07Z</time></trkpt><trkpt lat="50.2316894196" lon="6.6731323488"><ele>518.42</ele><time>2026-04-27T09:42:27Z</time></trkpt><trkpt lat="50.2316884138" lon="6.6731289960"><ele>517.49</ele><time>2026-04-27T09:42:59Z</time></trkpt><trkpt lat="50.2316945326" lon="6.6730471887"><ele>518.30</ele><time>2026-04-27T09:43:21Z</time></trkpt><trkpt lat="50.2316915151" lon="6.6730333585"><ele>518.54</ele><time>2026-04-27T09:43:22Z</time></trkpt><trkpt lat="50.2316268906" lon="6.6728690732"><ele>518.61</ele><time>2026-04-27T09:43:35Z</time></trkpt><trkpt lat="50.2315061912" lon="6.6726912092"><ele>517.76</ele><time>2026-04-27T09:43:51Z</time></trkpt><trkpt lat="50.2313380502" lon="6.6724809911"><ele>516.87</ele><time>2026-04-27T09:44:12Z</time></trkpt><trkpt lat="50.2311340347" lon="6.6722429451"><ele>515.11</ele><time>2026-04-27T09:44:36Z</time></trkpt><trkpt lat="50.2309701685" lon="6.6720471438"><ele>513.68</ele><time>2026-04-27T09:44:56Z</time></trkpt><trkpt lat="50.2308094036" lon="6.6718298849"><ele>512.45</ele><time>2026-04-27T09:45:16Z</time></trkpt><trkpt lat="50.2306787297" lon="6.6716809385"><ele>511.01</ele><time>2026-04-27T09:45:31Z</time></trkpt><trkpt lat="50.2304669190" lon="6.6714674514"><ele>510.23</ele><time>2026-04-27T09:45:54Z</time></trkpt><trkpt lat="50.2302621491" lon="6.6712855641"><ele>508.93</ele><time>2026-04-27T09:46:16Z</time></trkpt><trkpt lat="50.2300677728" lon="6.6710782796"><ele>508.02</ele><time>2026-04-27T09:46:38Z</time></trkpt><trkpt lat="50.2298858017" lon="6.6708008386"><ele>507.44</ele><time>2026-04-27T09:47:01Z</time></trkpt><trkpt lat="50.2297164034" lon="6.6705095675"><ele>507.45</ele><time>2026-04-27T09:47:24Z</time></trkpt><trkpt lat="50.2295914292" lon="6.6702963319"><ele>508.24</ele><time>2026-04-27T09:47:43Z</time></trkpt><trkpt lat="50.2294811234" lon="6.6700945795"><ele>509.08</ele><time>2026-04-27T09:48:01Z</time></trkpt><trkpt lat="50.2293802053" lon="6.6698934976"><ele>510.53</ele><time>2026-04-27T09:48:20Z</time></trkpt><trkpt lat="50.2292952966" lon="6.6697240993"><ele>511.95</ele><time>2026-04-27T09:48:37Z</time></trkpt><trkpt lat="50.2292329352" lon="6.6695709620"><ele>513.21</ele><time>2026-04-27T09:48:52Z</time></trkpt><trkpt lat="50.2292067837" lon="6.6693311557"><ele>514.66</ele><time>2026-04-27T09:49:10Z</time></trkpt><trkpt lat="50.2292101365" lon="6.6690524574"><ele>515.64</ele><time>2026-04-27T09:49:29Z</time></trkpt><trkpt lat="50.2292120643" lon="6.6690369509"><ele>515.66</ele><time>2026-04-27T09:49:30Z</time></trkpt><trkpt lat="50.2292240504" lon="6.6688324325"><ele>515.15</ele><time>2026-04-27T09:49:44Z</time></trkpt><trkpt lat="50.2292465139" lon="6.6685744375"><ele>516.22</ele><time>2026-04-27T09:50:02Z</time></trkpt><trkpt lat="50.2292608470" lon="6.6683975793"><ele>516.87</ele><time>2026-04-27T09:50:16Z</time></trkpt><trkpt lat="50.2292650379" lon="6.6683840007"><ele>517.70</ele><time>2026-04-27T09:50:29Z</time></trkpt><trkpt lat="50.2292898484" lon="6.6683650576"><ele>517.54</ele><time>2026-04-27T09:50:46Z</time></trkpt><trkpt lat="50.2293059416" lon="6.6683456115"><ele>518.62</ele><time>2026-04-27T09:50:48Z</time></trkpt><trkpt lat="50.2293144073" lon="6.6683354694"><ele>518.80</ele><time>2026-04-27T09:50:49Z</time></trkpt><trkpt lat="50.2294741664" lon="6.6681424342"><ele>518.27</ele><time>2026-04-27T09:51:08Z</time></trkpt><trkpt lat="50.2295484301" lon="6.6679888777"><ele>518.45</ele><time>2026-04-27T09:51:21Z</time></trkpt><trkpt lat="50.2295553870" lon="6.6679607984"><ele>518.51</ele><time>2026-04-27T09:51:23Z</time></trkpt><trkpt lat="50.2295579854" lon="6.6679457109"><ele>518.52</ele><time>2026-04-27T09:51:24Z</time></trkpt><trkpt lat="50.2295846399" lon="6.6677319724"><ele>518.31</ele><time>2026-04-27T09:51:38Z</time></trkpt><trkpt lat="50.2295674570" lon="6.6676951759"><ele>518.05</ele><time>2026-04-27T09:51:54Z</time></trkpt><trkpt lat="50.2296086121" lon="6.6675872169"><ele>517.01</ele><time>2026-04-27T09:52:08Z</time></trkpt><trkpt lat="50.2296313271" lon="6.6675685253"><ele>518.37</ele><time>2026-04-27T09:52:12Z</time></trkpt><trkpt lat="50.2296607476" lon="6.6675480735"><ele>518.47</ele><time>2026-04-27T09:52:16Z</time></trkpt><trkpt lat="50.2297128830" lon="6.6675093491"><ele>518.35</ele><time>2026-04-27T09:52:22Z</time></trkpt><trkpt lat="50.2299190778" lon="6.6674769111"><ele>518.56</ele><time>2026-04-27T09:52:41Z</time></trkpt><trkpt lat="50.2300256118" lon="6.6673908290"><ele>519.76</ele><time>2026-04-27T09:52:57Z</time></trkpt><trkpt lat="50.2301652543" lon="6.6673109494"><ele>521.32</ele><time>2026-04-27T09:53:14Z</time></trkpt><trkpt lat="50.2302671783" lon="6.6672705486"><ele>520.88</ele><time>2026-04-27T09:53:31Z</time></trkpt><trkpt lat="50.2302653342" lon="6.6672762483"><ele>520.91</ele><time>2026-04-27T09:53:54Z</time></trkpt><trkpt lat="50.2303424478" lon="6.6672381107"><ele>520.89</ele><time>2026-04-27T09:54:11Z</time></trkpt><trkpt lat="50.2304697689" lon="6.6671031620"><ele>521.19</ele><time>2026-04-27T09:54:30Z</time></trkpt><trkpt lat="50.2305444516" lon="6.6670414712"><ele>521.93</ele><time>2026-04-27T09:54:48Z</time></trkpt><trkpt lat="50.2306047175" lon="6.6669765115"><ele>521.67</ele><time>2026-04-27T09:54:55Z</time></trkpt><trkpt lat="50.2306896262" lon="6.6668807901"><ele>520.60</ele><time>2026-04-27T09:55:08Z</time></trkpt><trkpt lat="50.2308355551" lon="6.6667885892"><ele>518.22</ele><time>2026-04-27T09:55:27Z</time></trkpt><trkpt lat="50.2309864294" lon="6.6666548979"><ele>515.94</ele><time>2026-04-27T09:55:46Z</time></trkpt><trkpt lat="50.2311529778" lon="6.6665054485"><ele>512.89</ele><time>2026-04-27T09:56:08Z</time></trkpt><trkpt lat="50.2312637027" lon="6.6663536523"><ele>510.49</ele><time>2026-04-27T09:56:25Z</time></trkpt><trkpt lat="50.2313593403" lon="6.6661426798"><ele>508.19</ele><time>2026-04-27T09:56:41Z</time></trkpt><trkpt lat="50.2314525470" lon="6.6659285221"><ele>505.89</ele><time>2026-04-27T09:57:01Z</time></trkpt><trkpt lat="50.2314373758" lon="6.6658997722"><ele>505.77</ele><time>2026-04-27T09:57:22Z</time></trkpt><trkpt lat="50.2314389683" lon="6.6658955812"><ele>505.03</ele><time>2026-04-27T09:57:44Z</time></trkpt><trkpt lat="50.2314582467" lon="6.6658143606"><ele>504.62</ele><time>2026-04-27T09:58:06Z</time></trkpt><trkpt lat="50.2314613480" lon="6.6657987703"><ele>504.62</ele><time>2026-04-27T09:58:07Z</time></trkpt><trkpt lat="50.2315066941" lon="6.6656752210"><ele>503.54</ele><time>2026-04-27T09:58:20Z</time></trkpt><trkpt lat="50.2315306664" lon="6.6655297950"><ele>503.08</ele><time>2026-04-27T09:58:37Z</time></trkpt><trkpt lat="50.2315915190" lon="6.6652725544"><ele>501.02</ele><time>2026-04-27T09:58:53Z</time></trkpt><trkpt lat="50.2316546347" lon="6.6651337501"><ele>499.50</ele><time>2026-04-27T09:59:08Z</time></trkpt><trkpt lat="50.2315952908" lon="6.6653059144"><ele>499.78</ele><time>2026-04-27T09:59:23Z</time></trkpt><trkpt lat="50.2316054329" lon="6.6652624961"><ele>500.58</ele><time>2026-04-27T09:59:40Z</time></trkpt><trkpt lat="50.2316114679" lon="6.6652762424"><ele>500.35</ele><time>2026-04-27T09:59:58Z</time></trkpt><trkpt lat="50.2316242922" lon="6.6652919166"><ele>499.63</ele><time>2026-04-27T10:00:23Z</time></trkpt><trkpt lat="50.2316231187" lon="6.6652740631"><ele>500.58</ele><time>2026-04-27T10:00:42Z</time></trkpt><trkpt lat="50.2316337638" lon="6.6652128752"><ele>500.50</ele><time>2026-04-27T10:00:46Z</time></trkpt><trkpt lat="50.2317215223" lon="6.6650013160"><ele>498.92</ele><time>2026-04-27T10:01:02Z</time></trkpt><trkpt lat="50.2318156511" lon="6.6647663713"><ele>498.16</ele><time>2026-04-27T10:01:19Z</time></trkpt><trkpt lat="50.2318703011" lon="6.6645661276"><ele>498.63</ele><time>2026-04-27T10:01:34Z</time></trkpt><trkpt lat="50.2318866458" lon="6.6644817218"><ele>499.11</ele><time>2026-04-27T10:01:45Z</time></trkpt><trkpt lat="50.2318692114" lon="6.6645193566"><ele>499.36</ele><time>2026-04-27T10:01:56Z</time></trkpt><trkpt lat="50.2318754978" lon="6.6643626150"><ele>499.67</ele><time>2026-04-27T10:02:10Z</time></trkpt><trkpt lat="50.2318991348" lon="6.6641962342"><ele>500.72</ele><time>2026-04-27T10:02:25Z</time></trkpt><trkpt lat="50.2318889089" lon="6.6640313622"><ele>500.94</ele><time>2026-04-27T10:02:40Z</time></trkpt><trkpt lat="50.2318715584" lon="6.6640375648"><ele>500.62</ele><time>2026-04-27T10:03:04Z</time></trkpt><trkpt lat="50.2318607457" lon="6.6640270874"><ele>500.30</ele><time>2026-04-27T10:03:18Z</time></trkpt><trkpt lat="50.2317398787" lon="6.6639325395"><ele>502.39</ele><time>2026-04-27T10:03:34Z</time></trkpt><trkpt lat="50.2317293175" lon="6.6639241576"><ele>502.48</ele><time>2026-04-27T10:03:35Z</time></trkpt><trkpt lat="50.2316143177" lon="6.6638329625"><ele>503.10</ele><time>2026-04-27T10:03:48Z</time></trkpt><trkpt lat="50.2314673830" lon="6.6637390014"><ele>502.90</ele><time>2026-04-27T10:04:03Z</time></trkpt><trkpt lat="50.2314092126" lon="6.6637486406"><ele>501.59</ele><time>2026-04-27T10:04:15Z</time></trkpt><trkpt lat="50.2313259803" lon="6.6636904702"><ele>501.08</ele><time>2026-04-27T10:04:30Z</time></trkpt><trkpt lat="50.2313139103" lon="6.6637079883"><ele>500.87</ele><time>2026-04-27T10:04:55Z</time></trkpt><trkpt lat="50.2312959731" lon="6.6636742093"><ele>499.91</ele><time>2026-04-27T10:05:22Z</time></trkpt><trkpt lat="50.2313210350" lon="6.6636487283"><ele>502.99</ele><time>2026-04-27T10:05:39Z</time></trkpt><trkpt lat="50.2314274851" lon="6.6635861993"><ele>506.00</ele><time>2026-04-27T10:06:03Z</time></trkpt><trkpt lat="50.2314845659" lon="6.6635172162"><ele>509.01</ele><time>2026-04-27T10:06:29Z</time></trkpt><trkpt lat="50.2313157544" lon="6.6634076647"><ele>512.09</ele><time>2026-04-27T10:07:00Z</time></trkpt><trkpt lat="50.2312755212" lon="6.6632775776"><ele>514.45</ele><time>2026-04-27T10:07:27Z</time></trkpt><trkpt lat="50.2313649561" lon="6.6632497497"><ele>516.83</ele><time>2026-04-27T10:07:50Z</time></trkpt><trkpt lat="50.2315449994" lon="6.6632012185"><ele>519.88</ele><time>2026-04-27T10:08:22Z</time></trkpt><trkpt lat="50.2315964643" lon="6.6631686967"><ele>520.08</ele><time>2026-04-27T10:08:56Z</time></trkpt><trkpt lat="50.2316948678" lon="6.6630909126"><ele>519.58</ele><time>2026-04-27T10:09:13Z</time></trkpt><trkpt lat="50.2318173274" lon="6.6629322432"><ele>518.70</ele><time>2026-04-27T10:09:32Z</time></trkpt><trkpt lat="50.2320039924" lon="6.6627851408"><ele>517.70</ele><time>2026-04-27T10:09:52Z</time></trkpt><trkpt lat="50.2321179025" lon="6.6626553889"><ele>517.78</ele><time>2026-04-27T10:10:08Z</time></trkpt><trkpt lat="50.2321681939" lon="6.6625718214"><ele>519.09</ele><time>2026-04-27T10:10:25Z</time></trkpt><trkpt lat="50.2321880590" lon="6.6625496093"><ele>520.13</ele><time>2026-04-27T10:10:47Z</time></trkpt><trkpt lat="50.2322119474" lon="6.6624875832"><ele>520.82</ele><time>2026-04-27T10:11:08Z</time></trkpt><trkpt lat="50.2322181500" lon="6.6624705680"><ele>520.90</ele><time>2026-04-27T10:11:17Z</time></trkpt><trkpt lat="50.2322427090" lon="6.6624610126"><ele>521.27</ele><time>2026-04-27T10:11:36Z</time></trkpt><trkpt lat="50.2322488278" lon="6.6624701489"><ele>521.72</ele><time>2026-04-27T10:11:58Z</time></trkpt><trkpt lat="50.2322583832" lon="6.6624833085"><ele>521.99</ele><time>2026-04-27T10:12:29Z</time></trkpt><trkpt lat="50.2322559524" lon="6.6625051014"><ele>521.78</ele><time>2026-04-27T10:13:03Z</time></trkpt><trkpt lat="50.2322553657" lon="6.6625128966"><ele>521.48</ele><time>2026-04-27T10:13:26Z</time></trkpt><trkpt lat="50.2323691919" lon="6.6624989826"><ele>523.08</ele><time>2026-04-27T10:13:53Z</time></trkpt><trkpt lat="50.2323527634" lon="6.6624787822"><ele>523.60</ele><time>2026-04-27T10:14:05Z</time></trkpt><trkpt lat="50.2323505003" lon="6.6624764353"><ele>523.84</ele><time>2026-04-27T10:14:25Z</time></trkpt><trkpt lat="50.2323408611" lon="6.6624876671"><ele>523.60</ele><time>2026-04-27T10:14:51Z</time></trkpt><trkpt lat="50.2323458903" lon="6.6624916065"><ele>523.21</ele><time>2026-04-27T10:15:23Z</time></trkpt><trkpt lat="50.2323621511" lon="6.6624837276"><ele>523.35</ele><time>2026-04-27T10:15:59Z</time></trkpt><trkpt lat="50.2323603909" lon="6.6624821350"><ele>522.96</ele><time>2026-04-27T10:16:42Z</time></trkpt><trkpt lat="50.2324178908" lon="6.6624509543"><ele>523.55</ele><time>2026-04-27T10:17:04Z</time></trkpt><trkpt lat="50.2325090021" lon="6.6623372957"><ele>524.27</ele><time>2026-04-27T10:17:18Z</time></trkpt><trkpt lat="50.2326503210" lon="6.6622227151"><ele>523.58</ele><time>2026-04-27T10:17:36Z</time></trkpt><trkpt lat="50.2327735350" lon="6.6620566696"><ele>524.03</ele><time>2026-04-27T10:17:56Z</time></trkpt><trkpt lat="50.2327882033" lon="6.6618577670"><ele>525.49</ele><time>2026-04-27T10:18:15Z</time></trkpt><trkpt lat="50.2328074817" lon="6.6617227346"><ele>526.94</ele><time>2026-04-27T10:18:32Z</time></trkpt><trkpt lat="50.2328172885" lon="6.6617124248"><ele>527.11</ele><time>2026-04-27T10:18:47Z</time></trkpt><trkpt lat="50.2328187972" lon="6.6615442000"><ele>526.82</ele><time>2026-04-27T10:19:03Z</time></trkpt><trkpt lat="50.2328204736" lon="6.6612979397"><ele>523.98</ele><time>2026-04-27T10:19:26Z</time></trkpt><trkpt lat="50.2326390892" lon="6.6611108556"><ele>520.97</ele><time>2026-04-27T10:19:48Z</time></trkpt><trkpt lat="50.2326106746" lon="6.6610861290"><ele>518.65</ele><time>2026-04-27T10:20:05Z</time></trkpt><trkpt lat="50.2325577009" lon="6.6610603966"><ele>518.73</ele><time>2026-04-27T10:20:28Z</time></trkpt><trkpt lat="50.2324733790" lon="6.6610200796"><ele>514.57</ele><time>2026-04-27T10:20:44Z</time></trkpt><trkpt lat="50.2323768195" lon="6.6609160602"><ele>517.74</ele><time>2026-04-27T10:20:53Z</time></trkpt><trkpt lat="50.2323679347" lon="6.6609097738"><ele>517.94</ele><time>2026-04-27T10:20:54Z</time></trkpt><trkpt lat="50.2323280368" lon="6.6608440597"><ele>514.90</ele><time>2026-04-27T10:21:08Z</time></trkpt><trkpt lat="50.2323428728" lon="6.6608551238"><ele>513.76</ele><time>2026-04-27T10:21:35Z</time></trkpt><trkpt lat="50.2322705369" lon="6.6607861407"><ele>512.76</ele><time>2026-04-27T10:22:00Z</time></trkpt><trkpt lat="50.2321474906" lon="6.6606527008"><ele>512.56</ele><time>2026-04-27T10:22:18Z</time></trkpt><trkpt lat="50.2321077604" lon="6.6606361885"><ele>512.15</ele><time>2026-04-27T10:22:25Z</time></trkpt><trkpt lat="50.2321000490" lon="6.6606221907"><ele>512.06</ele><time>2026-04-27T10:22:26Z</time></trkpt><trkpt lat="50.2319967002" lon="6.6603398044"><ele>510.20</ele><time>2026-04-27T10:22:42Z</time></trkpt><trkpt lat="50.2319285553" lon="6.6602100525"><ele>509.21</ele><time>2026-04-27T10:23:03Z</time></trkpt><trkpt lat="50.2318754140" lon="6.6601885948"><ele>509.78</ele><time>2026-04-27T10:23:10Z</time></trkpt><trkpt lat="50.2318672836" lon="6.6601739265"><ele>509.83</ele><time>2026-04-27T10:23:11Z</time></trkpt><trkpt lat="50.2317550499" lon="6.6599759459"><ele>510.47</ele><time>2026-04-27T10:23:31Z</time></trkpt><trkpt lat="50.2317157388" lon="6.6599165183"><ele>510.41</ele><time>2026-04-27T10:23:39Z</time></trkpt><trkpt lat="50.2316976339" lon="6.6599388141"><ele>510.45</ele><time>2026-04-27T10:24:01Z</time></trkpt><trkpt lat="50.2316656988" lon="6.6597960703"><ele>509.83</ele><time>2026-04-27T10:24:24Z</time></trkpt><trkpt lat="50.2316270582" lon="6.6597504728"><ele>512.01</ele><time>2026-04-27T10:24:44Z</time></trkpt><trkpt lat="50.2316139825" lon="6.6597259138"><ele>512.95</ele><time>2026-04-27T10:24:57Z</time></trkpt><trkpt lat="50.2316163294" lon="6.6597048752"><ele>512.87</ele><time>2026-04-27T10:25:11Z</time></trkpt><trkpt lat="50.2315901779" lon="6.6596575174"><ele>512.60</ele><time>2026-04-27T10:25:30Z</time></trkpt><trkpt lat="50.2315788623" lon="6.6596691683"><ele>512.52</ele><time>2026-04-27T10:25:53Z</time></trkpt><trkpt lat="50.2315744199" lon="6.6596469563"><ele>512.65</ele><time>2026-04-27T10:26:03Z</time></trkpt><trkpt lat="50.2316226996" lon="6.6595843434"><ele>513.50</ele><time>2026-04-27T10:26:28Z</time></trkpt><trkpt lat="50.2316264715" lon="6.6596621275"><ele>515.59</ele><time>2026-04-27T10:26:46Z</time></trkpt><trkpt lat="50.2316532098" lon="6.6596908774"><ele>514.17</ele><time>2026-04-27T10:27:09Z</time></trkpt><trkpt lat="50.2316577360" lon="6.6596910451"><ele>517.85</ele><time>2026-04-27T10:27:12Z</time></trkpt></trkseg><trkseg><trkpt lat="50.2316990588" lon="6.6597119160"><ele>516.98</ele><time>2026-04-27T10:28:59Z</time></trkpt></trkseg><trkseg><trkpt lat="50.2316990588" lon="6.6597119160"><ele>513.45</ele><time>2026-04-27T10:30:45Z</time></trkpt></trkseg><trkseg><trkpt lat="50.2316990588" lon="6.6597119160"><ele>514.61</ele><time>2026-04-27T10:30:52Z</time></trkpt></trkseg><trkseg><trkpt lat="50.2316990588" lon="6.6597119160"><ele>516.05</ele><time>2026-04-27T10:30:53Z</time></trkpt></trkseg><trkseg><trkpt lat="50.2316990588" lon="6.6597119160"><ele>517.35</ele><time>2026-04-27T10:30:54Z</time></trkpt></trkseg><trkseg><trkpt lat="50.2316990588" lon="6.6597119160"><ele>517.61</ele><time>2026-04-27T10:31:05Z</time></trkpt></trkseg><trkseg><trkpt lat="50.2316990588" lon="6.6597119160"><ele>516.13</ele><time>2026-04-27T10:31:06Z</time></trkpt></trkseg><trkseg><trkpt lat="50.2316990588" lon="6.6597119160"><ele>517.20</ele><time>2026-04-27T10:31:11Z</time></trkpt></trkseg><trkseg><trkpt lat="50.2316990588" lon="6.6597119160"><ele>518.78</ele><time>2026-04-27T10:31:12Z</time></trkpt></trkseg><trkseg><trkpt lat="50.2318125498" lon="6.6598418355"><ele>516.43</ele><time>2026-04-27T10:31:53Z</time></trkpt><trkpt lat="50.2317779325" lon="6.6598892771"><ele>516.38</ele><time>2026-04-27T10:31:54Z</time></trkpt><trkpt lat="50.2317338437" lon="6.6599288397"><ele>516.36</ele><time>2026-04-27T10:31:56Z</time></trkpt><trkpt lat="50.2317516133" lon="6.6598323639"><ele>516.49</ele><time>2026-04-27T10:32:05Z</time></trkpt><trkpt lat="50.2317184210" lon="6.6598744411"><ele>516.50</ele><time>2026-04-27T10:32:10Z</time></trkpt><trkpt lat="50.2316896711" lon="6.6599021014"><ele>516.41</ele><time>2026-04-27T10:32:13Z</time></trkpt><trkpt lat="50.2316827141" lon="6.6598844156"><ele>516.34</ele><time>2026-04-27T10:32:19Z</time></trkpt><trkpt lat="50.2317618392" lon="6.6596798133"><ele>516.52</ele><time>2026-04-27T10:32:35Z</time></trkpt><trkpt lat="50.2317725681" lon="6.6596692521"><ele>516.50</ele><time>2026-04-27T10:32:36Z</time></trkpt><trkpt lat="50.2317999769" lon="6.6597002652"><ele>516.08</ele><time>2026-04-27T10:33:02Z</time></trkpt></trkseg><trkseg><trkpt lat="50.2315445803" lon="6.6604095418"><ele>516.93</ele><time>2026-04-27T10:34:25Z</time></trkpt></trkseg><trkseg><trkpt lat="50.2316166647" lon="6.6596082319"><ele>516.80</ele><time>2026-04-27T10:34:38Z</time></trkpt><trkpt lat="50.2317701373" lon="6.6595456190"><ele>516.91</ele><time>2026-04-27T10:34:50Z</time></trkpt><trkpt lat="50.2318185847" lon="6.6595350578"><ele>516.19</ele><time>2026-04-27T10:35:09Z</time></trkpt><trkpt lat="50.2317707241" lon="6.6593307070"><ele>516.84</ele><time>2026-04-27T10:35:23Z</time></trkpt><trkpt lat="50.2317807823" lon="6.6593234986"><ele>516.83</ele><time>2026-04-27T10:35:24Z</time></trkpt><trkpt lat="50.2318010665" lon="6.6593148652"><ele>516.78</ele><time>2026-04-27T10:35:25Z</time></trkpt><trkpt lat="50.2317843027" lon="6.6595653165"><ele>517.20</ele><time>2026-04-27T10:35:40Z</time></trkpt><trkpt lat="50.2317907568" lon="6.6595907137"><ele>516.98</ele><time>2026-04-27T10:35:45Z</time></trkpt><trkpt lat="50.2318734862" lon="6.6595987603"><ele>516.64</ele><time>2026-04-27T10:36:01Z</time></trkpt><trkpt lat="50.2317607496" lon="6.6596325394"><ele>514.39</ele><time>2026-04-27T10:36:22Z</time></trkpt><trkpt lat="50.2317358553" lon="6.6596063040"><ele>511.93</ele><time>2026-04-27T10:36:30Z</time></trkpt><trkpt lat="50.2316982206" lon="6.6596208885"><ele>512.35</ele><time>2026-04-27T10:36:54Z</time></trkpt><trkpt lat="50.2316289861" lon="6.6596364789"><ele>511.28</ele><time>2026-04-27T10:37:18Z</time></trkpt><trkpt lat="50.2315311693" lon="6.6595763806"><ele>511.44</ele><time>2026-04-27T10:37:41Z</time></trkpt><trkpt lat="50.2313943766" lon="6.6594592016"><ele>510.54</ele><time>2026-04-27T10:38:02Z</time></trkpt><trkpt lat="50.2312413231" lon="6.6593267675"><ele>510.27</ele><time>2026-04-27T10:38:25Z</time></trkpt><trkpt lat="50.2311323583" lon="6.6592613049"><ele>512.96</ele><time>2026-04-27T10:38:48Z</time></trkpt><trkpt lat="50.2310585137" lon="6.6592122708"><ele>514.25</ele><time>2026-04-27T10:39:09Z</time></trkpt><trkpt lat="50.2310950588" lon="6.6591887176"><ele>513.84</ele><time>2026-04-27T10:39:30Z</time></trkpt><trkpt lat="50.2310922928" lon="6.6592445411"><ele>510.40</ele><time>2026-04-27T10:39:43Z</time></trkpt><trkpt lat="50.2310916223" lon="6.6592445411"><ele>510.15</ele><time>2026-04-27T10:39:44Z</time></trkpt><trkpt lat="50.2310874313" lon="6.6592447925"><ele>514.11</ele><time>2026-04-27T10:39:47Z</time></trkpt><trkpt lat="50.2310800552" lon="6.6592537612"><ele>515.56</ele><time>2026-04-27T10:39:50Z</time></trkpt><trkpt lat="50.2310826536" lon="6.6592549346"><ele>514.06</ele><time>2026-04-27T10:40:10Z</time></trkpt><trkpt lat="50.2310917061" lon="6.6592188086"><ele>513.64</ele><time>2026-04-27T10:40:39Z</time></trkpt><trkpt lat="50.2310253214" lon="6.6592100076"><ele>513.94</ele><time>2026-04-27T10:41:02Z</time></trkpt><trkpt lat="50.2309636306" lon="6.6592328902"><ele>516.22</ele><time>2026-04-27T10:41:22Z</time></trkpt><trkpt lat="50.2308320347" lon="6.6592152882"><ele>518.84</ele><time>2026-04-27T10:41:44Z</time></trkpt><trkpt lat="50.2307378221" lon="6.6591893882"><ele>521.55</ele><time>2026-04-27T10:42:04Z</time></trkpt><trkpt lat="50.2307588607" lon="6.6591883823"><ele>522.07</ele><time>2026-04-27T10:42:26Z</time></trkpt><trkpt lat="50.2306812443" lon="6.6591073293"><ele>521.82</ele><time>2026-04-27T10:42:45Z</time></trkpt><trkpt lat="50.2305628918" lon="6.6589629930"><ele>522.51</ele><time>2026-04-27T10:43:04Z</time></trkpt><trkpt lat="50.2304381691" lon="6.6587340832"><ele>522.91</ele><time>2026-04-27T10:43:26Z</time></trkpt><trkpt lat="50.2303211577" lon="6.6585338395"><ele>523.90</ele><time>2026-04-27T10:43:48Z</time></trkpt><trkpt lat="50.2302417811" lon="6.6582989786"><ele>525.65</ele><time>2026-04-27T10:44:09Z</time></trkpt><trkpt lat="50.2301511727" lon="6.6581347771"><ele>527.69</ele><time>2026-04-27T10:44:28Z</time></trkpt><trkpt lat="50.2301448025" lon="6.6580384690"><ele>528.59</ele><time>2026-04-27T10:44:39Z</time></trkpt><trkpt lat="50.2300760709" lon="6.6579077952"><ele>529.77</ele><time>2026-04-27T10:44:58Z</time></trkpt><trkpt lat="50.2301243506" lon="6.6577234771"><ele>532.14</ele><time>2026-04-27T10:45:26Z</time></trkpt><trkpt lat="50.2302644961" lon="6.6576644685"><ele>534.49</ele><time>2026-04-27T10:45:49Z</time></trkpt><trkpt lat="50.2302987780" lon="6.6576058790"><ele>536.10</ele><time>2026-04-27T10:46:10Z</time></trkpt><trkpt lat="50.2302952576" lon="6.6576052085"><ele>536.02</ele><time>2026-04-27T10:46:23Z</time></trkpt><trkpt lat="50.2302944195" lon="6.6576032806"><ele>536.30</ele><time>2026-04-27T10:46:24Z</time></trkpt><trkpt lat="50.2302891389" lon="6.6575943120"><ele>535.88</ele><time>2026-04-27T10:46:46Z</time></trkpt><trkpt lat="50.2302897256" lon="6.6575958207"><ele>536.15</ele><time>2026-04-27T10:47:12Z</time></trkpt><trkpt lat="50.2302801702" lon="6.6575797275"><ele>535.46</ele><time>2026-04-27T10:47:25Z</time></trkpt><trkpt lat="50.2302950062" lon="6.6575956531"><ele>535.64</ele><time>2026-04-27T10:47:41Z</time></trkpt><trkpt lat="50.2302942518" lon="6.6575995926"><ele>535.63</ele><time>2026-04-27T10:48:01Z</time></trkpt><trkpt lat="50.2302818466" lon="6.6576021910"><ele>535.66</ele><time>2026-04-27T10:48:20Z</time></trkpt><trkpt lat="50.2302398533" lon="6.6576128360"><ele>535.59</ele><time>2026-04-27T10:48:34Z</time></trkpt><trkpt lat="50.2302394342" lon="6.6575951502"><ele>535.32</ele><time>2026-04-27T10:48:52Z</time></trkpt><trkpt lat="50.2301872149" lon="6.6576081421"><ele>535.32</ele><time>2026-04-27T10:49:10Z</time></trkpt><trkpt lat="50.2301658411" lon="6.6575536598"><ele>534.90</ele><time>2026-04-27T10:49:23Z</time></trkpt><trkpt lat="50.2301624883" lon="6.6575363930"><ele>534.65</ele><time>2026-04-27T10:49:36Z</time></trkpt><trkpt lat="50.2301939204" lon="6.6576056276"><ele>534.47</ele><time>2026-04-27T10:49:48Z</time></trkpt><trkpt lat="50.2302372549" lon="6.6575608682"><ele>535.46</ele><time>2026-04-27T10:50:01Z</time></trkpt><trkpt lat="50.2302382607" lon="6.6576176137"><ele>536.05</ele><time>2026-04-27T10:50:29Z</time></trkpt><trkpt lat="50.2301783301" lon="6.6576113272"><ele>535.09</ele><time>2026-04-27T10:50:44Z</time></trkpt><trkpt lat="50.2301761508" lon="6.6576429270"><ele>534.90</ele><time>2026-04-27T10:51:05Z</time></trkpt><trkpt lat="50.2301032282" lon="6.6577073839"><ele>533.77</ele><time>2026-04-27T10:51:19Z</time></trkpt><trkpt lat="50.2300123684" lon="6.6578312684"><ele>531.75</ele><time>2026-04-27T10:51:38Z</time></trkpt><trkpt lat="50.2298821975" lon="6.6579322703"><ele>529.62</ele><time>2026-04-27T10:51:56Z</time></trkpt><trkpt lat="50.2297592349" lon="6.6581000760"><ele>527.35</ele><time>2026-04-27T10:52:15Z</time></trkpt><trkpt lat="50.2297165710" lon="6.6582933627"><ele>525.45</ele><time>2026-04-27T10:52:31Z</time></trkpt><trkpt lat="50.2296063490" lon="6.6583793610"><ele>523.59</ele><time>2026-04-27T10:52:47Z</time></trkpt><trkpt lat="50.2294516191" lon="6.6583066899"><ele>523.21</ele><time>2026-04-27T10:53:07Z</time></trkpt><trkpt lat="50.2294281498" lon="6.6580885928"><ele>522.31</ele><time>2026-04-27T10:53:27Z</time></trkpt><trkpt lat="50.2293683030" lon="6.6578962281"><ele>520.29</ele><time>2026-04-27T10:53:47Z</time></trkpt><trkpt lat="50.2293321770" lon="6.6580663808"><ele>517.51</ele><time>2026-04-27T10:54:07Z</time></trkpt><trkpt lat="50.2292766888" lon="6.6580015048"><ele>515.45</ele><time>2026-04-27T10:54:22Z</time></trkpt><trkpt lat="50.2292233799" lon="6.6580983158"><ele>512.88</ele><time>2026-04-27T10:54:40Z</time></trkpt><trkpt lat="50.2291807998" lon="6.6581891757"><ele>509.14</ele><time>2026-04-27T10:54:52Z</time></trkpt><trkpt lat="50.2291565761" lon="6.6582087055"><ele>511.88</ele><time>2026-04-27T10:54:59Z</time></trkpt><trkpt lat="50.2290972322" lon="6.6582699772"><ele>508.73</ele><time>2026-04-27T10:55:17Z</time></trkpt><trkpt lat="50.2290949691" lon="6.6581670474"><ele>507.22</ele><time>2026-04-27T10:55:39Z</time></trkpt><trkpt lat="50.2291024290" lon="6.6581475176"><ele>507.69</ele><time>2026-04-27T10:56:03Z</time></trkpt><trkpt lat="50.2290357929" lon="6.6581920255"><ele>506.64</ele><time>2026-04-27T10:56:20Z</time></trkpt><trkpt lat="50.2289902791" lon="6.6582102142"><ele>505.93</ele><time>2026-04-27T10:56:38Z</time></trkpt><trkpt lat="50.2288901992" lon="6.6580492817"><ele>504.29</ele><time>2026-04-27T10:56:57Z</time></trkpt><trkpt lat="50.2287900355" lon="6.6578985751"><ele>502.24</ele><time>2026-04-27T10:57:16Z</time></trkpt><trkpt lat="50.2287349664" lon="6.6578167677"><ele>500.33</ele><time>2026-04-27T10:57:32Z</time></trkpt><trkpt lat="50.2287144307" lon="6.6577477008"><ele>499.65</ele><time>2026-04-27T10:57:51Z</time></trkpt><trkpt lat="50.2287144307" lon="6.6577461082"><ele>499.29</ele><time>2026-04-27T10:58:14Z</time></trkpt><trkpt lat="50.2287084796" lon="6.6577500477"><ele>499.12</ele><time>2026-04-27T10:58:35Z</time></trkpt><trkpt lat="50.2286591940" lon="6.6576663963"><ele>498.24</ele><time>2026-04-27T10:59:21Z</time></trkpt><trkpt lat="50.2285591979" lon="6.6575037874"><ele>496.90</ele><time>2026-04-27T10:59:33Z</time></trkpt><trkpt lat="50.2284792345" lon="6.6573482193"><ele>495.38</ele><time>2026-04-27T10:59:49Z</time></trkpt><trkpt lat="50.2284824196" lon="6.6573395859"><ele>493.26</ele><time>2026-04-27T11:00:07Z</time></trkpt><trkpt lat="50.2284825873" lon="6.6573386639"><ele>491.65</ele><time>2026-04-27T11:00:51Z</time></trkpt><trkpt lat="50.2284700144" lon="6.6573086567"><ele>490.45</ele><time>2026-04-27T11:01:20Z</time></trkpt><trkpt lat="50.2284331340" lon="6.6572549287"><ele>491.23</ele><time>2026-04-27T11:01:25Z</time></trkpt><trkpt lat="50.2283954155" lon="6.6571946628"><ele>493.70</ele><time>2026-04-27T11:01:30Z</time></trkpt><trkpt lat="50.2282652445" lon="6.6570155416"><ele>492.66</ele><time>2026-04-27T11:01:47Z</time></trkpt><trkpt lat="50.2281247638" lon="6.6568458918"><ele>490.93</ele><time>2026-04-27T11:02:06Z</time></trkpt><trkpt lat="50.2281068265" lon="6.6568160523"><ele>490.46</ele><time>2026-04-27T11:02:15Z</time></trkpt><trkpt lat="50.2280924097" lon="6.6567919962"><ele>490.42</ele><time>2026-04-27T11:02:17Z</time></trkpt><trkpt lat="50.2280253544" lon="6.6567102727"><ele>489.20</ele><time>2026-04-27T11:02:30Z</time></trkpt><trkpt lat="50.2280018013" lon="6.6566784214"><ele>487.91</ele><time>2026-04-27T11:02:40Z</time></trkpt><trkpt lat="50.2279730514" lon="6.6566304769"><ele>484.70</ele><time>2026-04-27T11:02:45Z</time></trkpt><trkpt lat="50.2279642504" lon="6.6566236038"><ele>484.23</ele><time>2026-04-27T11:02:46Z</time></trkpt><trkpt lat="50.2279553656" lon="6.6566187423"><ele>484.00</ele><time>2026-04-27T11:02:47Z</time></trkpt><trkpt lat="50.2279150486" lon="6.6565774195"><ele>488.62</ele><time>2026-04-27T11:02:52Z</time></trkpt><trkpt lat="50.2278081793" lon="6.6564144753"><ele>488.91</ele><time>2026-04-27T11:03:08Z</time></trkpt><trkpt lat="50.2276294772" lon="6.6561889183"><ele>488.31</ele><time>2026-04-27T11:03:28Z</time></trkpt><trkpt lat="50.2274674550" lon="6.6559593379"><ele>488.76</ele><time>2026-04-27T11:03:48Z</time></trkpt><trkpt lat="50.2274178341" lon="6.6558884270"><ele>488.96</ele><time>2026-04-27T11:04:02Z</time></trkpt><trkpt lat="50.2273618430" lon="6.6558200307"><ele>489.16</ele><time>2026-04-27T11:04:13Z</time></trkpt><trkpt lat="50.2273552213" lon="6.6558091342"><ele>486.76</ele><time>2026-04-27T11:04:25Z</time></trkpt><trkpt lat="50.2273546346" lon="6.6558072902"><ele>489.87</ele><time>2026-04-27T11:04:29Z</time></trkpt><trkpt lat="50.2273547184" lon="6.6558073740"><ele>490.13</ele><time>2026-04-27T11:04:30Z</time></trkpt><trkpt lat="50.2272916026" lon="6.6557488684"><ele>490.16</ele><time>2026-04-27T11:04:43Z</time></trkpt><trkpt lat="50.2271746751" lon="6.6555912886"><ele>490.39</ele><time>2026-04-27T11:04:59Z</time></trkpt><trkpt lat="50.2270605136" lon="6.6554190405"><ele>491.26</ele><time>2026-04-27T11:05:17Z</time></trkpt><trkpt lat="50.2269478608" lon="6.6552957427"><ele>492.01</ele><time>2026-04-27T11:05:31Z</time></trkpt><trkpt lat="50.2267931309" lon="6.6552520730"><ele>492.92</ele><time>2026-04-27T11:05:47Z</time></trkpt><trkpt lat="50.2266713418" lon="6.6553046275"><ele>494.39</ele><time>2026-04-27T11:06:04Z</time></trkpt><trkpt lat="50.2265907917" lon="6.6553102434"><ele>495.25</ele><time>2026-04-27T11:06:21Z</time></trkpt><trkpt lat="50.2265879419" lon="6.6553144343"><ele>495.44</ele><time>2026-04-27T11:06:38Z</time></trkpt><trkpt lat="50.2265701722" lon="6.6553879436"><ele>495.47</ele><time>2026-04-27T11:06:51Z</time></trkpt><trkpt lat="50.2265669033" lon="6.6553907096"><ele>495.73</ele><time>2026-04-27T11:07:12Z</time></trkpt><trkpt lat="50.2265634667" lon="6.6553876083"><ele>496.09</ele><time>2026-04-27T11:07:41Z</time></trkpt><trkpt lat="50.2265784703" lon="6.6553275939"><ele>496.16</ele><time>2026-04-27T11:08:09Z</time></trkpt><trkpt lat="50.2265362255" lon="6.6552602872"><ele>496.03</ele><time>2026-04-27T11:08:21Z</time></trkpt><trkpt lat="50.2265157737" lon="6.6552304476"><ele>496.18</ele><time>2026-04-27T11:08:34Z</time></trkpt><trkpt lat="50.2265201323" lon="6.6551684216"><ele>497.01</ele><time>2026-04-27T11:08:45Z</time></trkpt><trkpt lat="50.2265255805" lon="6.6551179625"><ele>496.46</ele><time>2026-04-27T11:08:58Z</time></trkpt><trkpt lat="50.2265505586" lon="6.6550371610"><ele>496.78</ele><time>2026-04-27T11:09:14Z</time></trkpt><trkpt lat="50.2265546657" lon="6.6548955906"><ele>496.36</ele><time>2026-04-27T11:09:30Z</time></trkpt><trkpt lat="50.2265452780" lon="6.6549411882"><ele>496.53</ele><time>2026-04-27T11:09:52Z</time></trkpt><trkpt lat="50.2265487146" lon="6.6549846902"><ele>495.97</ele><time>2026-04-27T11:10:06Z</time></trkpt><trkpt lat="50.2265441045" lon="6.6549830977"><ele>496.43</ele><time>2026-04-27T11:10:26Z</time></trkpt><trkpt lat="50.2265500557" lon="6.6550278571"><ele>496.29</ele><time>2026-04-27T11:10:47Z</time></trkpt><trkpt lat="50.2265400812" lon="6.6551658232"><ele>497.06</ele><time>2026-04-27T11:11:08Z</time></trkpt><trkpt lat="50.2265579347" lon="6.6551898792"><ele>496.23</ele><time>2026-04-27T11:11:22Z</time></trkpt><trkpt lat="50.2265498042" lon="6.6552612092"><ele>496.61</ele><time>2026-04-27T11:11:41Z</time></trkpt><trkpt lat="50.2265443560" lon="6.6552652325"><ele>496.37</ele><time>2026-04-27T11:11:57Z</time></trkpt><trkpt lat="50.2265432663" lon="6.6552647296"><ele>496.28</ele><time>2026-04-27T11:12:28Z</time></trkpt><trkpt lat="50.2265420090" lon="6.6552671604"><ele>496.42</ele><time>2026-04-27T11:12:47Z</time></trkpt><trkpt lat="50.2265518997" lon="6.6552688368"><ele>495.77</ele><time>2026-04-27T11:13:19Z</time></trkpt><trkpt lat="50.2266001794" lon="6.6552868579"><ele>495.90</ele><time>2026-04-27T11:13:26Z</time></trkpt><trkpt lat="50.2266460285" lon="6.6554083955"><ele>495.65</ele><time>2026-04-27T11:13:39Z</time></trkpt><trkpt lat="50.2266929671" lon="6.6554764565"><ele>495.43</ele><time>2026-04-27T11:13:52Z</time></trkpt><trkpt lat="50.2267414983" lon="6.6556176078"><ele>495.17</ele><time>2026-04-27T11:14:06Z</time></trkpt><trkpt lat="50.2268365491" lon="6.6558253113"><ele>495.10</ele><time>2026-04-27T11:14:26Z</time></trkpt><trkpt lat="50.2269295882" lon="6.6560835578"><ele>495.24</ele><time>2026-04-27T11:14:48Z</time></trkpt><trkpt lat="50.2269648761" lon="6.6562286485"><ele>494.46</ele><time>2026-04-27T11:15:07Z</time></trkpt><trkpt lat="50.2270453423" lon="6.6564323287"><ele>494.03</ele><time>2026-04-27T11:15:27Z</time></trkpt><trkpt lat="50.2270246390" lon="6.6564907506"><ele>494.29</ele><time>2026-04-27T11:15:42Z</time></trkpt><trkpt lat="50.2270071208" lon="6.6565609910"><ele>493.90</ele><time>2026-04-27T11:15:53Z</time></trkpt><trkpt lat="50.2269947995" lon="6.6565531120"><ele>493.00</ele><time>2026-04-27T11:16:11Z</time></trkpt><trkpt lat="50.2270010859" lon="6.6565632541"><ele>493.14</ele><time>2026-04-27T11:16:30Z</time></trkpt><trkpt lat="50.2270082105" lon="6.6565674450"><ele>492.77</ele><time>2026-04-27T11:17:14Z</time></trkpt><trkpt lat="50.2269991580" lon="6.6566019785"><ele>492.35</ele><time>2026-04-27T11:17:31Z</time></trkpt><trkpt lat="50.2270071208" lon="6.6565921716"><ele>492.94</ele><time>2026-04-27T11:17:45Z</time></trkpt><trkpt lat="50.2270058636" lon="6.6566099413"><ele>492.53</ele><time>2026-04-27T11:18:05Z</time></trkpt><trkpt lat="50.2270675544" lon="6.6566101927"><ele>492.68</ele><time>2026-04-27T11:18:23Z</time></trkpt><trkpt lat="50.2270881739" lon="6.6567069199"><ele>492.00</ele><time>2026-04-27T11:18:36Z</time></trkpt><trkpt lat="50.2271143254" lon="6.6567864642"><ele>491.70</ele><time>2026-04-27T11:18:49Z</time></trkpt><trkpt lat="50.2271816321" lon="6.6569691058"><ele>490.66</ele><time>2026-04-27T11:19:09Z</time></trkpt><trkpt lat="50.2272123937" lon="6.6571957525"><ele>489.16</ele><time>2026-04-27T11:19:29Z</time></trkpt><trkpt lat="50.2272631880" lon="6.6573789809"><ele>487.68</ele><time>2026-04-27T11:19:44Z</time></trkpt><trkpt lat="50.2273553051" lon="6.6575991735"><ele>486.21</ele><time>2026-04-27T11:20:03Z</time></trkpt><trkpt lat="50.2273836359" lon="6.6577174421"><ele>486.11</ele><time>2026-04-27T11:20:11Z</time></trkpt><trkpt lat="50.2273879945" lon="6.6579719167"><ele>485.84</ele><time>2026-04-27T11:20:27Z</time></trkpt><trkpt lat="50.2273827977" lon="6.6580058634"><ele>485.62</ele><time>2026-04-27T11:20:29Z</time></trkpt><trkpt lat="50.2273746673" lon="6.6582113877"><ele>484.08</ele><time>2026-04-27T11:20:44Z</time></trkpt><trkpt lat="50.2273632679" lon="6.6582381260"><ele>483.27</ele><time>2026-04-27T11:21:02Z</time></trkpt><trkpt lat="50.2272735815" lon="6.6583853960"><ele>483.14</ele><time>2026-04-27T11:21:19Z</time></trkpt><trkpt lat="50.2273030020" lon="6.6584512778"><ele>482.35</ele><time>2026-04-27T11:21:30Z</time></trkpt><trkpt lat="50.2272581588" lon="6.6585405450"><ele>480.03</ele><time>2026-04-27T11:21:48Z</time></trkpt><trkpt lat="50.2273070253" lon="6.6586550418"><ele>477.35</ele><time>2026-04-27T11:22:08Z</time></trkpt><trkpt lat="50.2273123059" lon="6.6588531900"><ele>474.56</ele><time>2026-04-27T11:22:29Z</time></trkpt><trkpt lat="50.2272361144" lon="6.6589551978"><ele>471.92</ele><time>2026-04-27T11:22:48Z</time></trkpt><trkpt lat="50.2271348611" lon="6.6589963529"><ele>469.33</ele><time>2026-04-27T11:23:09Z</time></trkpt><trkpt lat="50.2271527145" lon="6.6588656791"><ele>467.57</ele><time>2026-04-27T11:23:25Z</time></trkpt><trkpt lat="50.2270967234" lon="6.6588613205"><ele>465.14</ele><time>2026-04-27T11:23:47Z</time></trkpt><trkpt lat="50.2270616870" lon="6.6587984562"><ele>463.38</ele><time>2026-04-27T11:24:02Z</time></trkpt><trkpt lat="50.2269659657" lon="6.6586933471"><ele>460.32</ele><time>2026-04-27T11:24:32Z</time></trkpt><trkpt lat="50.2268710826" lon="6.6586776730"><ele>458.82</ele><time>2026-04-27T11:24:53Z</time></trkpt><trkpt lat="50.2268475294" lon="6.6586011462"><ele>457.75</ele><time>2026-04-27T11:25:11Z</time></trkpt><trkpt lat="50.2268149238" lon="6.6584980488"><ele>455.81</ele><time>2026-04-27T11:25:38Z</time></trkpt><trkpt lat="50.2267730143" lon="6.6583174188"><ele>453.46</ele><time>2026-04-27T11:26:01Z</time></trkpt><trkpt lat="50.2267351281" lon="6.6582042631"><ele>452.51</ele><time>2026-04-27T11:26:17Z</time></trkpt><trkpt lat="50.2266523987" lon="6.6580926161"><ele>450.88</ele><time>2026-04-27T11:26:32Z</time></trkpt><trkpt lat="50.2266246546" lon="6.6580205318"><ele>450.16</ele><time>2026-04-27T11:26:47Z</time></trkpt><trkpt lat="50.2266130038" lon="6.6579402331"><ele>449.19</ele><time>2026-04-27T11:27:01Z</time></trkpt><trkpt lat="50.2265415061" lon="6.6577640455"><ele>446.80</ele><time>2026-04-27T11:27:21Z</time></trkpt><trkpt lat="50.2264794800" lon="6.6576000955"><ele>445.24</ele><time>2026-04-27T11:27:38Z</time></trkpt><trkpt lat="50.2264315356" lon="6.6574000195"><ele>443.34</ele><time>2026-04-27T11:27:54Z</time></trkpt><trkpt lat="50.2264109161" lon="6.6572505701"><ele>443.40</ele><time>2026-04-27T11:28:09Z</time></trkpt><trkpt lat="50.2263753768" lon="6.6571340617"><ele>443.48</ele><time>2026-04-27T11:28:23Z</time></trkpt><trkpt lat="50.2263537515" lon="6.6569853667"><ele>443.27</ele><time>2026-04-27T11:28:36Z</time></trkpt><trkpt lat="50.2263419330" lon="6.6568850353"><ele>443.20</ele><time>2026-04-27T11:29:00Z</time></trkpt><trkpt lat="50.2263490576" lon="6.6568394378"><ele>442.59</ele><time>2026-04-27T11:29:12Z</time></trkpt><trkpt lat="50.2263397537" lon="6.6567477398"><ele>442.34</ele><time>2026-04-27T11:29:25Z</time></trkpt><trkpt lat="50.2263229061" lon="6.6566755716"><ele>440.45</ele><time>2026-04-27T11:29:47Z</time></trkpt><trkpt lat="50.2262830921" lon="6.6564738192"><ele>439.86</ele><time>2026-04-27T11:30:10Z</time></trkpt><trkpt lat="50.2262675855" lon="6.6564147267"><ele>436.15</ele><time>2026-04-27T11:30:25Z</time></trkpt><trkpt lat="50.2262583654" lon="6.6563998070"><ele>434.36</ele><time>2026-04-27T11:30:28Z</time></trkpt><trkpt lat="50.2262369078" lon="6.6563073546"><ele>437.70</ele><time>2026-04-27T11:30:35Z</time></trkpt><trkpt lat="50.2262308728" lon="6.6562880762"><ele>438.54</ele><time>2026-04-27T11:30:37Z</time></trkpt><trkpt lat="50.2261913102" lon="6.6562895011"><ele>436.82</ele><time>2026-04-27T11:30:53Z</time></trkpt><trkpt lat="50.2261683438" lon="6.6564133018"><ele>434.52</ele><time>2026-04-27T11:31:08Z</time></trkpt><trkpt lat="50.2261469699" lon="6.6565938480"><ele>431.49</ele><time>2026-04-27T11:31:27Z</time></trkpt><trkpt lat="50.2261390071" lon="6.6567446385"><ele>431.11</ele><time>2026-04-27T11:31:47Z</time></trkpt><trkpt lat="50.2261095028" lon="6.6569870431"><ele>428.69</ele><time>2026-04-27T11:32:06Z</time></trkpt><trkpt lat="50.2260809205" lon="6.6572565213"><ele>427.26</ele><time>2026-04-27T11:32:26Z</time></trkpt><trkpt lat="50.2260550205" lon="6.6575736925"><ele>425.25</ele><time>2026-04-27T11:32:47Z</time></trkpt><trkpt lat="50.2260950021" lon="6.6578258201"><ele>424.54</ele><time>2026-04-27T11:33:07Z</time></trkpt><trkpt lat="50.2261582017" lon="6.6581333522"><ele>424.12</ele><time>2026-04-27T11:33:30Z</time></trkpt><trkpt lat="50.2261907235" lon="6.6583348531"><ele>420.97</ele><time>2026-04-27T11:33:51Z</time></trkpt><trkpt lat="50.2262084931" lon="6.6584045067"><ele>417.89</ele><time>2026-04-27T11:34:10Z</time></trkpt><trkpt lat="50.2262184676" lon="6.6584886611"><ele>419.53</ele><time>2026-04-27T11:34:16Z</time></trkpt><trkpt lat="50.2262736205" lon="6.6587846261"><ele>421.39</ele><time>2026-04-27T11:34:38Z</time></trkpt><trkpt lat="50.2263457887" lon="6.6589880548"><ele>422.78</ele><time>2026-04-27T11:34:56Z</time></trkpt><trkpt lat="50.2264754567" lon="6.6592533421"><ele>425.09</ele><time>2026-04-27T11:35:23Z</time></trkpt><trkpt lat="50.2266000118" lon="6.6594379116"><ele>426.83</ele><time>2026-04-27T11:35:46Z</time></trkpt><trkpt lat="50.2267244831" lon="6.6596211400"><ele>428.84</ele><time>2026-04-27T11:36:07Z</time></trkpt><trkpt lat="50.2268243115" lon="6.6598134208"><ele>430.91</ele><time>2026-04-27T11:36:27Z</time></trkpt><trkpt lat="50.2269435860" lon="6.6600465216"><ele>433.05</ele><time>2026-04-27T11:36:51Z</time></trkpt><trkpt lat="50.2270511258" lon="6.6602641158"><ele>435.21</ele><time>2026-04-27T11:37:15Z</time></trkpt><trkpt lat="50.2270823065" lon="6.6603833064"><ele>436.74</ele><time>2026-04-27T11:37:35Z</time></trkpt><trkpt lat="50.2270840667" lon="6.6603829712"><ele>436.64</ele><time>2026-04-27T11:37:53Z</time></trkpt><trkpt lat="50.2270882577" lon="6.6604114696"><ele>436.90</ele><time>2026-04-27T11:38:25Z</time></trkpt><trkpt lat="50.2271432430" lon="6.6606863122"><ele>438.75</ele><time>2026-04-27T11:38:50Z</time></trkpt><trkpt lat="50.2272143215" lon="6.6609587241"><ele>441.13</ele><time>2026-04-27T11:39:14Z</time></trkpt><trkpt lat="50.2272496093" lon="6.6610710416"><ele>442.06</ele><time>2026-04-27T11:39:25Z</time></trkpt><trkpt lat="50.2272878308" lon="6.6612538509"><ele>443.31</ele><time>2026-04-27T11:39:40Z</time></trkpt><trkpt lat="50.2273213584" lon="6.6614177171"><ele>444.31</ele><time>2026-04-27T11:39:55Z</time></trkpt><trkpt lat="50.2273573168" lon="6.6616213974"><ele>445.70</ele><time>2026-04-27T11:40:12Z</time></trkpt><trkpt lat="50.2273947839" lon="6.6618174501"><ele>447.80</ele><time>2026-04-27T11:40:30Z</time></trkpt><trkpt lat="50.2274057642" lon="6.6619753651"><ele>449.22</ele><time>2026-04-27T11:40:44Z</time></trkpt><trkpt lat="50.2273992263" lon="6.6621234734"><ele>450.52</ele><time>2026-04-27T11:40:57Z</time></trkpt><trkpt lat="50.2273794450" lon="6.6622947995"><ele>451.30</ele><time>2026-04-27T11:41:11Z</time></trkpt><trkpt lat="50.2273258008" lon="6.6625946201"><ele>450.71</ele><time>2026-04-27T11:41:34Z</time></trkpt><trkpt lat="50.2273226995" lon="6.6626278125"><ele>450.89</ele><time>2026-04-27T11:41:51Z</time></trkpt><trkpt lat="50.2273414750" lon="6.6626723204"><ele>450.73</ele><time>2026-04-27T11:42:15Z</time></trkpt><trkpt lat="50.2273741644" lon="6.6627145652"><ele>450.68</ele><time>2026-04-27T11:42:29Z</time></trkpt><trkpt lat="50.2273661178" lon="6.6626894195"><ele>451.30</ele><time>2026-04-27T11:42:41Z</time></trkpt><trkpt lat="50.2273682971" lon="6.6626914311"><ele>449.09</ele><time>2026-04-27T11:42:54Z</time></trkpt><trkpt lat="50.2273679618" lon="6.6626910120"><ele>449.04</ele><time>2026-04-27T11:42:55Z</time></trkpt></trkseg></trk></gpx>